<?xml version="1.0" encoding="UTF-8" standalone="no" ?>
<gpx xmlns="http://www.topografix.com/GPX/1/1" xmlns:xsi="http://www.w3.org/2001/XMLSchema-instance" xsi:schemaLocation="http://www.topografix.com/GPX/1/1 http://www.topografix.com/GPX/1/1/gpx.xsd" version="1.1" creator="VisuGPX - https://www.visugpx.com">
  <metadata>
    <name>VTT du mercredi 20 septembre 2017 (gouillasse)</name>
    <desc><![CDATA[On est parti sous la grisaille, à 5 et équipés de cuissards longs. Le sol était détrempé par les pluies de la veille et Chris a eu du mal à naviguer sur la boue, dans le secteur du bois des cosaques (km 6). Constatant sa perte de moral, Christan a fort heureusement changé son fusil d'épaule et nous a fait continuer sur la route jusqu'à Chargey-les-Port. Pour la suite : chemins en tout-venant et routes goudronnées.
J'ai cédé mon destrier électrique à Chris pour les derniers kilomètres (elle en a apprécié le confort).
  ]]></desc>
  </metadata>
  <trk>
    <name><![CDATA[2017-09-20 09:41]]></name>
    <desc><![CDATA[<p>Heure de départ: 09/20/2017 09:42<br/>Heure d'arrivée: 09/20/2017 12:16<br/>Distance: 27,7 km (02:34)<br/>Temps déplacement: 02:07<br/>Vitesse moyenne: 10,71 km/h<br/>Vitesse moyenne mouv.: 12,97 km/h<br/>Vitesse Max.: 46,72 km/h<br/>Altitude minimale: 192 m<br/>Altitude maximale: 354 m<br/>Vitesse de montée: 208,5 m/h<br/>Vitesse de descente: -508,9 m/h<br/>Gain d'altitude: 274 m<br/>Perte d'altitude: -304 m<br/>Temps de montée: 01:19<br/>Temps de descente: 00:35<br/></p><hr align="center" width="480" style="height: 2px; width: 517px"/>]]></desc>
    <trkseg>
      <trkpt lat="47.6863" lon="6.04541">
        <ele>247.5</ele>
        <time>2017-09-20T07:42:00Z</time>
      </trkpt>
      <trkpt lat="47.68621" lon="6.04515">
        <ele>240.9</ele>
        <time>2017-09-20T07:42:48Z</time>
      </trkpt>
      <trkpt lat="47.68603" lon="6.04502">
        <ele>238.31</ele>
        <time>2017-09-20T07:42:54Z</time>
      </trkpt>
      <trkpt lat="47.68584" lon="6.04488">
        <ele>232.93</ele>
        <time>2017-09-20T07:42:59Z</time>
      </trkpt>
      <trkpt lat="47.68562" lon="6.04475">
        <ele>229.15</ele>
        <time>2017-09-20T07:43:03Z</time>
      </trkpt>
      <trkpt lat="47.68544" lon="6.04459">
        <ele>212.89</ele>
        <time>2017-09-20T07:43:06Z</time>
      </trkpt>
      <trkpt lat="47.6852" lon="6.04455">
        <ele>202.19</ele>
        <time>2017-09-20T07:43:12Z</time>
      </trkpt>
      <trkpt lat="47.685" lon="6.04454">
        <ele>192.88</ele>
        <time>2017-09-20T07:43:16Z</time>
      </trkpt>
      <trkpt lat="47.68449" lon="6.04385">
        <ele>241.74</ele>
        <time>2017-09-20T07:43:18Z</time>
      </trkpt>
      <trkpt lat="47.68431" lon="6.0443">
        <ele>224.65</ele>
        <time>2017-09-20T07:43:24Z</time>
      </trkpt>
      <trkpt lat="47.6841" lon="6.04431">
        <ele>212.58</ele>
        <time>2017-09-20T07:43:28Z</time>
      </trkpt>
      <trkpt lat="47.68398" lon="6.04408">
        <ele>211.66</ele>
        <time>2017-09-20T07:43:33Z</time>
      </trkpt>
      <trkpt lat="47.68397" lon="6.04375">
        <ele>211.22</ele>
        <time>2017-09-20T07:43:38Z</time>
      </trkpt>
      <trkpt lat="47.68398" lon="6.04342">
        <ele>211.84</ele>
        <time>2017-09-20T07:43:42Z</time>
      </trkpt>
      <trkpt lat="47.68398" lon="6.04307">
        <ele>211.56</ele>
        <time>2017-09-20T07:43:46Z</time>
      </trkpt>
      <trkpt lat="47.68398" lon="6.04274">
        <ele>211.17</ele>
        <time>2017-09-20T07:43:50Z</time>
      </trkpt>
      <trkpt lat="47.68389" lon="6.04247">
        <ele>210.69</ele>
        <time>2017-09-20T07:43:57Z</time>
      </trkpt>
      <trkpt lat="47.68373" lon="6.04235">
        <ele>210.64</ele>
        <time>2017-09-20T07:44:02Z</time>
      </trkpt>
      <trkpt lat="47.68363" lon="6.04211">
        <ele>210.6</ele>
        <time>2017-09-20T07:44:07Z</time>
      </trkpt>
      <trkpt lat="47.6836" lon="6.04181">
        <ele>210.34</ele>
        <time>2017-09-20T07:44:12Z</time>
      </trkpt>
      <trkpt lat="47.68368" lon="6.04154">
        <ele>210.43</ele>
        <time>2017-09-20T07:44:17Z</time>
      </trkpt>
      <trkpt lat="47.68389" lon="6.04156">
        <ele>210.57</ele>
        <time>2017-09-20T07:44:22Z</time>
      </trkpt>
      <trkpt lat="47.68411" lon="6.04158">
        <ele>210.38</ele>
        <time>2017-09-20T07:44:27Z</time>
      </trkpt>
      <trkpt lat="47.68432" lon="6.04162">
        <ele>210.14</ele>
        <time>2017-09-20T07:44:32Z</time>
      </trkpt>
      <trkpt lat="47.68453" lon="6.04164">
        <ele>209.95</ele>
        <time>2017-09-20T07:44:36Z</time>
      </trkpt>
      <trkpt lat="47.68475" lon="6.04165">
        <ele>209.84</ele>
        <time>2017-09-20T07:44:40Z</time>
      </trkpt>
      <trkpt lat="47.68495" lon="6.04169">
        <ele>209.7</ele>
        <time>2017-09-20T07:44:44Z</time>
      </trkpt>
      <trkpt lat="47.68514" lon="6.04172">
        <ele>209.56</ele>
        <time>2017-09-20T07:44:48Z</time>
      </trkpt>
      <trkpt lat="47.68535" lon="6.04174">
        <ele>209.45</ele>
        <time>2017-09-20T07:44:52Z</time>
      </trkpt>
      <trkpt lat="47.68557" lon="6.04179">
        <ele>209.37</ele>
        <time>2017-09-20T07:44:56Z</time>
      </trkpt>
      <trkpt lat="47.68577" lon="6.04184">
        <ele>209.29</ele>
        <time>2017-09-20T07:45:00Z</time>
      </trkpt>
      <trkpt lat="47.68596" lon="6.04192">
        <ele>209.23</ele>
        <time>2017-09-20T07:45:04Z</time>
      </trkpt>
      <trkpt lat="47.68619" lon="6.04199">
        <ele>209.17</ele>
        <time>2017-09-20T07:45:08Z</time>
      </trkpt>
      <trkpt lat="47.68641" lon="6.04205">
        <ele>209.15</ele>
        <time>2017-09-20T07:45:12Z</time>
      </trkpt>
      <trkpt lat="47.68663" lon="6.0421">
        <ele>209.16</ele>
        <time>2017-09-20T07:45:16Z</time>
      </trkpt>
      <trkpt lat="47.68684" lon="6.04215">
        <ele>209.15</ele>
        <time>2017-09-20T07:45:20Z</time>
      </trkpt>
      <trkpt lat="47.68704" lon="6.0422">
        <ele>209.17</ele>
        <time>2017-09-20T07:45:24Z</time>
      </trkpt>
      <trkpt lat="47.68725" lon="6.04225">
        <ele>209.16</ele>
        <time>2017-09-20T07:45:28Z</time>
      </trkpt>
      <trkpt lat="47.68745" lon="6.04228">
        <ele>209.1</ele>
        <time>2017-09-20T07:45:32Z</time>
      </trkpt>
      <trkpt lat="47.68763" lon="6.04229">
        <ele>209.05</ele>
        <time>2017-09-20T07:45:36Z</time>
      </trkpt>
      <trkpt lat="47.68786" lon="6.04232">
        <ele>209.04</ele>
        <time>2017-09-20T07:45:41Z</time>
      </trkpt>
      <trkpt lat="47.68805" lon="6.04237">
        <ele>209.05</ele>
        <time>2017-09-20T07:45:46Z</time>
      </trkpt>
      <trkpt lat="47.68823" lon="6.04235">
        <ele>209.1</ele>
        <time>2017-09-20T07:46:08Z</time>
      </trkpt>
      <trkpt lat="47.68842" lon="6.04239">
        <ele>209.14</ele>
        <time>2017-09-20T07:46:15Z</time>
      </trkpt>
      <trkpt lat="47.68862" lon="6.04242">
        <ele>209.19</ele>
        <time>2017-09-20T07:46:21Z</time>
      </trkpt>
      <trkpt lat="47.68881" lon="6.04243">
        <ele>209.24</ele>
        <time>2017-09-20T07:46:27Z</time>
      </trkpt>
      <trkpt lat="47.689" lon="6.04249">
        <ele>209.36</ele>
        <time>2017-09-20T07:46:33Z</time>
      </trkpt>
      <trkpt lat="47.68917" lon="6.04258">
        <ele>209.52</ele>
        <time>2017-09-20T07:47:03Z</time>
      </trkpt>
      <trkpt lat="47.68927" lon="6.04236">
        <ele>209.63</ele>
        <time>2017-09-20T07:47:08Z</time>
      </trkpt>
      <trkpt lat="47.68937" lon="6.04209">
        <ele>209.96</ele>
        <time>2017-09-20T07:47:13Z</time>
      </trkpt>
      <trkpt lat="47.68948" lon="6.04185">
        <ele>210.13</ele>
        <time>2017-09-20T07:47:18Z</time>
      </trkpt>
      <trkpt lat="47.6896" lon="6.04157">
        <ele>210.37</ele>
        <time>2017-09-20T07:47:23Z</time>
      </trkpt>
      <trkpt lat="47.6897" lon="6.04132">
        <ele>210.44</ele>
        <time>2017-09-20T07:47:28Z</time>
      </trkpt>
      <trkpt lat="47.68979" lon="6.04109">
        <ele>210.55</ele>
        <time>2017-09-20T07:47:33Z</time>
      </trkpt>
      <trkpt lat="47.68989" lon="6.04085">
        <ele>210.65</ele>
        <time>2017-09-20T07:47:37Z</time>
      </trkpt>
      <trkpt lat="47.68998" lon="6.04061">
        <ele>210.65</ele>
        <time>2017-09-20T07:47:42Z</time>
      </trkpt>
      <trkpt lat="47.69009" lon="6.04035">
        <ele>210.7</ele>
        <time>2017-09-20T07:47:47Z</time>
      </trkpt>
      <trkpt lat="47.69019" lon="6.0401">
        <ele>210.64</ele>
        <time>2017-09-20T07:47:52Z</time>
      </trkpt>
      <trkpt lat="47.69029" lon="6.03983">
        <ele>210.54</ele>
        <time>2017-09-20T07:47:57Z</time>
      </trkpt>
      <trkpt lat="47.69039" lon="6.03955">
        <ele>210.46</ele>
        <time>2017-09-20T07:48:02Z</time>
      </trkpt>
      <trkpt lat="47.6905" lon="6.03929">
        <ele>210.51</ele>
        <time>2017-09-20T07:48:07Z</time>
      </trkpt>
      <trkpt lat="47.69061" lon="6.03902">
        <ele>210.52</ele>
        <time>2017-09-20T07:48:12Z</time>
      </trkpt>
      <trkpt lat="47.6907" lon="6.03877">
        <ele>210.45</ele>
        <time>2017-09-20T07:48:16Z</time>
      </trkpt>
      <trkpt lat="47.69081" lon="6.03851">
        <ele>210.29</ele>
        <time>2017-09-20T07:48:20Z</time>
      </trkpt>
      <trkpt lat="47.6909" lon="6.03828">
        <ele>210.17</ele>
        <time>2017-09-20T07:48:24Z</time>
      </trkpt>
      <trkpt lat="47.69102" lon="6.03807">
        <ele>210.11</ele>
        <time>2017-09-20T07:48:37Z</time>
      </trkpt>
      <trkpt lat="47.69123" lon="6.03806">
        <ele>209.89</ele>
        <time>2017-09-20T07:48:44Z</time>
      </trkpt>
      <trkpt lat="47.69113" lon="6.03781">
        <ele>209.81</ele>
        <time>2017-09-20T07:48:56Z</time>
      </trkpt>
      <trkpt lat="47.69119" lon="6.03753">
        <ele>209.8</ele>
        <time>2017-09-20T07:49:01Z</time>
      </trkpt>
      <trkpt lat="47.69129" lon="6.03726">
        <ele>209.8</ele>
        <time>2017-09-20T07:49:07Z</time>
      </trkpt>
      <trkpt lat="47.69135" lon="6.03696">
        <ele>209.81</ele>
        <time>2017-09-20T07:49:15Z</time>
      </trkpt>
      <trkpt lat="47.6914" lon="6.03666">
        <ele>209.78</ele>
        <time>2017-09-20T07:49:20Z</time>
      </trkpt>
      <trkpt lat="47.69155" lon="6.03649">
        <ele>209.76</ele>
        <time>2017-09-20T07:49:27Z</time>
      </trkpt>
      <trkpt lat="47.69169" lon="6.03666">
        <ele>209.78</ele>
        <time>2017-09-20T07:49:33Z</time>
      </trkpt>
      <trkpt lat="47.69187" lon="6.03656">
        <ele>209.92</ele>
        <time>2017-09-20T07:49:44Z</time>
      </trkpt>
      <trkpt lat="47.69203" lon="6.03646">
        <ele>210.88</ele>
        <time>2017-09-20T07:50:06Z</time>
      </trkpt>
      <trkpt lat="47.69223" lon="6.03642">
        <ele>211.76</ele>
        <time>2017-09-20T07:50:18Z</time>
      </trkpt>
      <trkpt lat="47.69242" lon="6.03644">
        <ele>212.76</ele>
        <time>2017-09-20T07:50:22Z</time>
      </trkpt>
      <trkpt lat="47.69258" lon="6.03631">
        <ele>212.97</ele>
        <time>2017-09-20T07:50:27Z</time>
      </trkpt>
      <trkpt lat="47.69277" lon="6.03621">
        <ele>213.15</ele>
        <time>2017-09-20T07:50:35Z</time>
      </trkpt>
      <trkpt lat="47.69295" lon="6.03608">
        <ele>213.38</ele>
        <time>2017-09-20T07:50:44Z</time>
      </trkpt>
      <trkpt lat="47.69311" lon="6.03596">
        <ele>213.71</ele>
        <time>2017-09-20T07:50:55Z</time>
      </trkpt>
      <trkpt lat="47.69319" lon="6.03569">
        <ele>214.13</ele>
        <time>2017-09-20T07:51:08Z</time>
      </trkpt>
      <trkpt lat="47.69335" lon="6.03558">
        <ele>214.46</ele>
        <time>2017-09-20T07:51:18Z</time>
      </trkpt>
      <trkpt lat="47.69353" lon="6.03552">
        <ele>214.74</ele>
        <time>2017-09-20T07:51:27Z</time>
      </trkpt>
      <trkpt lat="47.6937" lon="6.03542">
        <ele>215.03</ele>
        <time>2017-09-20T07:51:36Z</time>
      </trkpt>
      <trkpt lat="47.69386" lon="6.03528">
        <ele>215.34</ele>
        <time>2017-09-20T07:51:45Z</time>
      </trkpt>
      <trkpt lat="47.694" lon="6.03508">
        <ele>215.76</ele>
        <time>2017-09-20T07:51:55Z</time>
      </trkpt>
      <trkpt lat="47.69416" lon="6.03493">
        <ele>216.18</ele>
        <time>2017-09-20T07:52:03Z</time>
      </trkpt>
      <trkpt lat="47.69431" lon="6.03478">
        <ele>216.73</ele>
        <time>2017-09-20T07:52:12Z</time>
      </trkpt>
      <trkpt lat="47.69447" lon="6.0346">
        <ele>217.32</ele>
        <time>2017-09-20T07:52:21Z</time>
      </trkpt>
      <trkpt lat="47.69461" lon="6.03443">
        <ele>217.89</ele>
        <time>2017-09-20T07:52:29Z</time>
      </trkpt>
      <trkpt lat="47.69476" lon="6.03423">
        <ele>219.83</ele>
        <time>2017-09-20T07:53:01Z</time>
      </trkpt>
      <trkpt lat="47.6949" lon="6.03402">
        <ele>221.1</ele>
        <time>2017-09-20T07:53:07Z</time>
      </trkpt>
      <trkpt lat="47.69506" lon="6.03376">
        <ele>224.16</ele>
        <time>2017-09-20T07:53:12Z</time>
      </trkpt>
      <trkpt lat="47.69519" lon="6.03349">
        <ele>225.24</ele>
        <time>2017-09-20T07:53:16Z</time>
      </trkpt>
      <trkpt lat="47.69532" lon="6.03329">
        <ele>225.71</ele>
        <time>2017-09-20T07:53:19Z</time>
      </trkpt>
      <trkpt lat="47.69547" lon="6.03303">
        <ele>226.18</ele>
        <time>2017-09-20T07:53:23Z</time>
      </trkpt>
      <trkpt lat="47.69558" lon="6.03279">
        <ele>226.5</ele>
        <time>2017-09-20T07:53:27Z</time>
      </trkpt>
      <trkpt lat="47.6957" lon="6.03255">
        <ele>226.74</ele>
        <time>2017-09-20T07:53:31Z</time>
      </trkpt>
      <trkpt lat="47.69584" lon="6.03233">
        <ele>226.91</ele>
        <time>2017-09-20T07:53:36Z</time>
      </trkpt>
      <trkpt lat="47.69594" lon="6.03208">
        <ele>227.05</ele>
        <time>2017-09-20T07:53:45Z</time>
      </trkpt>
      <trkpt lat="47.69592" lon="6.03179">
        <ele>227.33</ele>
        <time>2017-09-20T07:53:57Z</time>
      </trkpt>
      <trkpt lat="47.69587" lon="6.03151">
        <ele>227.55</ele>
        <time>2017-09-20T07:54:05Z</time>
      </trkpt>
      <trkpt lat="47.69582" lon="6.03123">
        <ele>227.75</ele>
        <time>2017-09-20T07:54:12Z</time>
      </trkpt>
      <trkpt lat="47.69578" lon="6.03096">
        <ele>227.92</ele>
        <time>2017-09-20T07:54:18Z</time>
      </trkpt>
      <trkpt lat="47.69574" lon="6.03067">
        <ele>228.1</ele>
        <time>2017-09-20T07:54:24Z</time>
      </trkpt>
      <trkpt lat="47.69569" lon="6.03037">
        <ele>228.29</ele>
        <time>2017-09-20T07:54:30Z</time>
      </trkpt>
      <trkpt lat="47.69566" lon="6.03009">
        <ele>228.49</ele>
        <time>2017-09-20T07:54:36Z</time>
      </trkpt>
      <trkpt lat="47.69563" lon="6.02981">
        <ele>228.76</ele>
        <time>2017-09-20T07:54:43Z</time>
      </trkpt>
      <trkpt lat="47.69562" lon="6.02953">
        <ele>229.01</ele>
        <time>2017-09-20T07:54:49Z</time>
      </trkpt>
      <trkpt lat="47.69561" lon="6.02926">
        <ele>229.27</ele>
        <time>2017-09-20T07:54:55Z</time>
      </trkpt>
      <trkpt lat="47.6956" lon="6.02898">
        <ele>229.53</ele>
        <time>2017-09-20T07:55:01Z</time>
      </trkpt>
      <trkpt lat="47.69557" lon="6.02869">
        <ele>229.78</ele>
        <time>2017-09-20T07:55:07Z</time>
      </trkpt>
      <trkpt lat="47.69555" lon="6.0284">
        <ele>230.07</ele>
        <time>2017-09-20T07:55:14Z</time>
      </trkpt>
      <trkpt lat="47.69551" lon="6.02812">
        <ele>230.36</ele>
        <time>2017-09-20T07:55:21Z</time>
      </trkpt>
      <trkpt lat="47.69545" lon="6.02785">
        <ele>230.67</ele>
        <time>2017-09-20T07:55:29Z</time>
      </trkpt>
      <trkpt lat="47.69538" lon="6.02758">
        <ele>231</ele>
        <time>2017-09-20T07:55:38Z</time>
      </trkpt>
      <trkpt lat="47.69532" lon="6.0273">
        <ele>231.23</ele>
        <time>2017-09-20T07:55:45Z</time>
      </trkpt>
      <trkpt lat="47.6954" lon="6.02704">
        <ele>232.25</ele>
        <time>2017-09-20T07:55:50Z</time>
      </trkpt>
      <trkpt lat="47.69554" lon="6.02687">
        <ele>232.47</ele>
        <time>2017-09-20T07:55:55Z</time>
      </trkpt>
      <trkpt lat="47.69565" lon="6.02661">
        <ele>232.89</ele>
        <time>2017-09-20T07:56:00Z</time>
      </trkpt>
      <trkpt lat="47.69572" lon="6.02636">
        <ele>233.12</ele>
        <time>2017-09-20T07:56:04Z</time>
      </trkpt>
      <trkpt lat="47.69577" lon="6.02608">
        <ele>233.22</ele>
        <time>2017-09-20T07:56:08Z</time>
      </trkpt>
      <trkpt lat="47.69582" lon="6.02578">
        <ele>233.24</ele>
        <time>2017-09-20T07:56:13Z</time>
      </trkpt>
      <trkpt lat="47.69585" lon="6.02551">
        <ele>233.22</ele>
        <time>2017-09-20T07:56:17Z</time>
      </trkpt>
      <trkpt lat="47.69586" lon="6.02524">
        <ele>233.17</ele>
        <time>2017-09-20T07:56:20Z</time>
      </trkpt>
      <trkpt lat="47.6959" lon="6.02496">
        <ele>233.13</ele>
        <time>2017-09-20T07:56:23Z</time>
      </trkpt>
      <trkpt lat="47.69597" lon="6.02471">
        <ele>233.09</ele>
        <time>2017-09-20T07:56:26Z</time>
      </trkpt>
      <trkpt lat="47.69605" lon="6.02446">
        <ele>233.05</ele>
        <time>2017-09-20T07:56:29Z</time>
      </trkpt>
      <trkpt lat="47.69615" lon="6.02421">
        <ele>233.02</ele>
        <time>2017-09-20T07:56:33Z</time>
      </trkpt>
      <trkpt lat="47.69626" lon="6.02395">
        <ele>233</ele>
        <time>2017-09-20T07:56:38Z</time>
      </trkpt>
      <trkpt lat="47.69638" lon="6.02372">
        <ele>232.99</ele>
        <time>2017-09-20T07:56:43Z</time>
      </trkpt>
      <trkpt lat="47.69653" lon="6.02352">
        <ele>233.02</ele>
        <time>2017-09-20T07:56:48Z</time>
      </trkpt>
      <trkpt lat="47.69671" lon="6.02337">
        <ele>233.03</ele>
        <time>2017-09-20T07:56:55Z</time>
      </trkpt>
      <trkpt lat="47.6969" lon="6.02327">
        <ele>233.03</ele>
        <time>2017-09-20T07:57:03Z</time>
      </trkpt>
      <trkpt lat="47.69708" lon="6.02319">
        <ele>233.03</ele>
        <time>2017-09-20T07:57:11Z</time>
      </trkpt>
      <trkpt lat="47.69726" lon="6.02316">
        <ele>233.04</ele>
        <time>2017-09-20T07:57:18Z</time>
      </trkpt>
      <trkpt lat="47.69744" lon="6.02315">
        <ele>233.05</ele>
        <time>2017-09-20T07:57:25Z</time>
      </trkpt>
      <trkpt lat="47.69763" lon="6.02311">
        <ele>233.08</ele>
        <time>2017-09-20T07:57:33Z</time>
      </trkpt>
      <trkpt lat="47.69782" lon="6.02308">
        <ele>233.11</ele>
        <time>2017-09-20T07:57:41Z</time>
      </trkpt>
      <trkpt lat="47.698" lon="6.02302">
        <ele>233.15</ele>
        <time>2017-09-20T07:57:48Z</time>
      </trkpt>
      <trkpt lat="47.69819" lon="6.02293">
        <ele>233.21</ele>
        <time>2017-09-20T07:57:56Z</time>
      </trkpt>
      <trkpt lat="47.69836" lon="6.0228">
        <ele>233.26</ele>
        <time>2017-09-20T07:58:03Z</time>
      </trkpt>
      <trkpt lat="47.69854" lon="6.02267">
        <ele>233.34</ele>
        <time>2017-09-20T07:58:10Z</time>
      </trkpt>
      <trkpt lat="47.69867" lon="6.02245">
        <ele>233.42</ele>
        <time>2017-09-20T07:58:16Z</time>
      </trkpt>
      <trkpt lat="47.6988" lon="6.0222">
        <ele>233.51</ele>
        <time>2017-09-20T07:58:22Z</time>
      </trkpt>
      <trkpt lat="47.69889" lon="6.02194">
        <ele>234.05</ele>
        <time>2017-09-20T07:58:27Z</time>
      </trkpt>
      <trkpt lat="47.69896" lon="6.02167">
        <ele>234.18</ele>
        <time>2017-09-20T07:58:34Z</time>
      </trkpt>
      <trkpt lat="47.69905" lon="6.02141">
        <ele>234.29</ele>
        <time>2017-09-20T07:58:41Z</time>
      </trkpt>
      <trkpt lat="47.69917" lon="6.0212">
        <ele>234.35</ele>
        <time>2017-09-20T07:58:47Z</time>
      </trkpt>
      <trkpt lat="47.69928" lon="6.02096">
        <ele>234.42</ele>
        <time>2017-09-20T07:58:54Z</time>
      </trkpt>
      <trkpt lat="47.69943" lon="6.02078">
        <ele>234.5</ele>
        <time>2017-09-20T07:59:01Z</time>
      </trkpt>
      <trkpt lat="47.69958" lon="6.02062">
        <ele>234.56</ele>
        <time>2017-09-20T07:59:06Z</time>
      </trkpt>
      <trkpt lat="47.69973" lon="6.02046">
        <ele>234.62</ele>
        <time>2017-09-20T07:59:11Z</time>
      </trkpt>
      <trkpt lat="47.69988" lon="6.02027">
        <ele>234.7</ele>
        <time>2017-09-20T07:59:17Z</time>
      </trkpt>
      <trkpt lat="47.70001" lon="6.01998">
        <ele>234.92</ele>
        <time>2017-09-20T07:59:24Z</time>
      </trkpt>
      <trkpt lat="47.70015" lon="6.01973">
        <ele>235.15</ele>
        <time>2017-09-20T07:59:28Z</time>
      </trkpt>
      <trkpt lat="47.7003" lon="6.0195">
        <ele>235.22</ele>
        <time>2017-09-20T07:59:32Z</time>
      </trkpt>
      <trkpt lat="47.70047" lon="6.01929">
        <ele>235.23</ele>
        <time>2017-09-20T07:59:37Z</time>
      </trkpt>
      <trkpt lat="47.70063" lon="6.01916">
        <ele>235.24</ele>
        <time>2017-09-20T07:59:42Z</time>
      </trkpt>
      <trkpt lat="47.70078" lon="6.01902">
        <ele>235.26</ele>
        <time>2017-09-20T07:59:51Z</time>
      </trkpt>
      <trkpt lat="47.70091" lon="6.01881">
        <ele>235.33</ele>
        <time>2017-09-20T08:00:38Z</time>
      </trkpt>
      <trkpt lat="47.70103" lon="6.01859">
        <ele>235.47</ele>
        <time>2017-09-20T08:01:01Z</time>
      </trkpt>
      <trkpt lat="47.70117" lon="6.01841">
        <ele>235.56</ele>
        <time>2017-09-20T08:01:09Z</time>
      </trkpt>
      <trkpt lat="47.70127" lon="6.01817">
        <ele>235.67</ele>
        <time>2017-09-20T08:01:19Z</time>
      </trkpt>
      <trkpt lat="47.70144" lon="6.01806">
        <ele>235.72</ele>
        <time>2017-09-20T08:01:23Z</time>
      </trkpt>
      <trkpt lat="47.70159" lon="6.01787">
        <ele>235.84</ele>
        <time>2017-09-20T08:01:33Z</time>
      </trkpt>
      <trkpt lat="47.70172" lon="6.01767">
        <ele>235.95</ele>
        <time>2017-09-20T08:01:42Z</time>
      </trkpt>
      <trkpt lat="47.70183" lon="6.01744">
        <ele>236.06</ele>
        <time>2017-09-20T08:01:51Z</time>
      </trkpt>
      <trkpt lat="47.70189" lon="6.01716">
        <ele>236.13</ele>
        <time>2017-09-20T08:01:57Z</time>
      </trkpt>
      <trkpt lat="47.702" lon="6.01692">
        <ele>236.24</ele>
        <time>2017-09-20T08:02:05Z</time>
      </trkpt>
      <trkpt lat="47.70209" lon="6.01668">
        <ele>236.35</ele>
        <time>2017-09-20T08:02:14Z</time>
      </trkpt>
      <trkpt lat="47.70223" lon="6.0165">
        <ele>236.43</ele>
        <time>2017-09-20T08:02:21Z</time>
      </trkpt>
      <trkpt lat="47.70239" lon="6.01631">
        <ele>236.52</ele>
        <time>2017-09-20T08:02:29Z</time>
      </trkpt>
      <trkpt lat="47.70251" lon="6.01608">
        <ele>236.61</ele>
        <time>2017-09-20T08:02:36Z</time>
      </trkpt>
      <trkpt lat="47.70262" lon="6.01586">
        <ele>236.7</ele>
        <time>2017-09-20T08:02:45Z</time>
      </trkpt>
      <trkpt lat="47.70276" lon="6.01567">
        <ele>236.94</ele>
        <time>2017-09-20T08:03:07Z</time>
      </trkpt>
      <trkpt lat="47.70286" lon="6.01543">
        <ele>237.07</ele>
        <time>2017-09-20T08:03:15Z</time>
      </trkpt>
      <trkpt lat="47.70295" lon="6.01518">
        <ele>237.21</ele>
        <time>2017-09-20T08:03:24Z</time>
      </trkpt>
      <trkpt lat="47.70305" lon="6.01495">
        <ele>237.61</ele>
        <time>2017-09-20T08:04:04Z</time>
      </trkpt>
      <trkpt lat="47.70318" lon="6.01475">
        <ele>237.85</ele>
        <time>2017-09-20T08:04:17Z</time>
      </trkpt>
      <trkpt lat="47.70329" lon="6.01452">
        <ele>238.19</ele>
        <time>2017-09-20T08:04:38Z</time>
      </trkpt>
      <trkpt lat="47.70312" lon="6.01436">
        <ele>238.97</ele>
        <time>2017-09-20T08:05:29Z</time>
      </trkpt>
      <trkpt lat="47.70294" lon="6.01428">
        <ele>239.32</ele>
        <time>2017-09-20T08:05:40Z</time>
      </trkpt>
      <trkpt lat="47.70275" lon="6.01437">
        <ele>239.64</ele>
        <time>2017-09-20T08:05:51Z</time>
      </trkpt>
      <trkpt lat="47.70256" lon="6.01438">
        <ele>239.76</ele>
        <time>2017-09-20T08:05:57Z</time>
      </trkpt>
      <trkpt lat="47.70236" lon="6.01443">
        <ele>239.87</ele>
        <time>2017-09-20T08:06:05Z</time>
      </trkpt>
      <trkpt lat="47.70217" lon="6.01419">
        <ele>239.92</ele>
        <time>2017-09-20T08:06:12Z</time>
      </trkpt>
      <trkpt lat="47.70197" lon="6.01411">
        <ele>240.01</ele>
        <time>2017-09-20T08:06:21Z</time>
      </trkpt>
      <trkpt lat="47.70178" lon="6.01406">
        <ele>240.05</ele>
        <time>2017-09-20T08:06:26Z</time>
      </trkpt>
      <trkpt lat="47.7016" lon="6.01397">
        <ele>240.08</ele>
        <time>2017-09-20T08:06:31Z</time>
      </trkpt>
      <trkpt lat="47.70139" lon="6.01391">
        <ele>240.15</ele>
        <time>2017-09-20T08:06:38Z</time>
      </trkpt>
      <trkpt lat="47.70121" lon="6.01384">
        <ele>240.29</ele>
        <time>2017-09-20T08:06:47Z</time>
      </trkpt>
      <trkpt lat="47.70109" lon="6.01363">
        <ele>240.54</ele>
        <time>2017-09-20T08:07:04Z</time>
      </trkpt>
      <trkpt lat="47.70096" lon="6.01338">
        <ele>240.49</ele>
        <time>2017-09-20T08:07:13Z</time>
      </trkpt>
      <trkpt lat="47.70085" lon="6.01314">
        <ele>240.36</ele>
        <time>2017-09-20T08:07:21Z</time>
      </trkpt>
      <trkpt lat="47.70069" lon="6.01297">
        <ele>240.3</ele>
        <time>2017-09-20T08:07:27Z</time>
      </trkpt>
      <trkpt lat="47.70052" lon="6.01282">
        <ele>240.29</ele>
        <time>2017-09-20T08:07:34Z</time>
      </trkpt>
      <trkpt lat="47.70039" lon="6.01262">
        <ele>240.45</ele>
        <time>2017-09-20T08:07:44Z</time>
      </trkpt>
      <trkpt lat="47.70027" lon="6.01243">
        <ele>240.74</ele>
        <time>2017-09-20T08:07:55Z</time>
      </trkpt>
      <trkpt lat="47.70016" lon="6.01219">
        <ele>240.92</ele>
        <time>2017-09-20T08:08:06Z</time>
      </trkpt>
      <trkpt lat="47.70001" lon="6.01197">
        <ele>240.95</ele>
        <time>2017-09-20T08:08:15Z</time>
      </trkpt>
      <trkpt lat="47.69988" lon="6.01171">
        <ele>241.03</ele>
        <time>2017-09-20T08:08:23Z</time>
      </trkpt>
      <trkpt lat="47.69976" lon="6.0115">
        <ele>241.18</ele>
        <time>2017-09-20T08:08:32Z</time>
      </trkpt>
      <trkpt lat="47.69963" lon="6.0113">
        <ele>241.41</ele>
        <time>2017-09-20T08:08:44Z</time>
      </trkpt>
      <trkpt lat="47.69949" lon="6.01112">
        <ele>241.73</ele>
        <time>2017-09-20T08:08:56Z</time>
      </trkpt>
      <trkpt lat="47.69935" lon="6.01092">
        <ele>242.07</ele>
        <time>2017-09-20T08:09:04Z</time>
      </trkpt>
      <trkpt lat="47.6992" lon="6.01073">
        <ele>242.43</ele>
        <time>2017-09-20T08:09:14Z</time>
      </trkpt>
      <trkpt lat="47.69907" lon="6.01053">
        <ele>242.77</ele>
        <time>2017-09-20T08:09:22Z</time>
      </trkpt>
      <trkpt lat="47.69892" lon="6.01036">
        <ele>243.3</ele>
        <time>2017-09-20T08:09:30Z</time>
      </trkpt>
      <trkpt lat="47.69874" lon="6.01023">
        <ele>243.85</ele>
        <time>2017-09-20T08:09:37Z</time>
      </trkpt>
      <trkpt lat="47.69857" lon="6.01011">
        <ele>244.87</ele>
        <time>2017-09-20T08:09:48Z</time>
      </trkpt>
      <trkpt lat="47.6984" lon="6.00998">
        <ele>246.11</ele>
        <time>2017-09-20T08:10:00Z</time>
      </trkpt>
      <trkpt lat="47.69821" lon="6.00987">
        <ele>246.83</ele>
        <time>2017-09-20T08:10:07Z</time>
      </trkpt>
      <trkpt lat="47.69803" lon="6.00978">
        <ele>247.99</ele>
        <time>2017-09-20T08:10:20Z</time>
      </trkpt>
      <trkpt lat="47.69789" lon="6.00956">
        <ele>249.23</ele>
        <time>2017-09-20T08:10:32Z</time>
      </trkpt>
      <trkpt lat="47.69787" lon="6.00929">
        <ele>250.15</ele>
        <time>2017-09-20T08:10:41Z</time>
      </trkpt>
      <trkpt lat="47.6979" lon="6.009">
        <ele>250.84</ele>
        <time>2017-09-20T08:10:50Z</time>
      </trkpt>
      <trkpt lat="47.69795" lon="6.00872">
        <ele>251.4</ele>
        <time>2017-09-20T08:11:00Z</time>
      </trkpt>
      <trkpt lat="47.69798" lon="6.00844">
        <ele>251.48</ele>
        <time>2017-09-20T08:11:09Z</time>
      </trkpt>
      <trkpt lat="47.69802" lon="6.00818">
        <ele>251.19</ele>
        <time>2017-09-20T08:11:18Z</time>
      </trkpt>
      <trkpt lat="47.69798" lon="6.00788">
        <ele>250.93</ele>
        <time>2017-09-20T08:11:29Z</time>
      </trkpt>
      <trkpt lat="47.69799" lon="6.0076">
        <ele>250.43</ele>
        <time>2017-09-20T08:11:37Z</time>
      </trkpt>
      <trkpt lat="47.69804" lon="6.00734">
        <ele>249.48</ele>
        <time>2017-09-20T08:11:47Z</time>
      </trkpt>
      <trkpt lat="47.69813" lon="6.00711">
        <ele>249.06</ele>
        <time>2017-09-20T08:11:52Z</time>
      </trkpt>
      <trkpt lat="47.69817" lon="6.00683">
        <ele>249.06</ele>
        <time>2017-09-20T08:12:02Z</time>
      </trkpt>
      <trkpt lat="47.69818" lon="6.00654">
        <ele>249.97</ele>
        <time>2017-09-20T08:12:13Z</time>
      </trkpt>
      <trkpt lat="47.69819" lon="6.00627">
        <ele>251.07</ele>
        <time>2017-09-20T08:12:20Z</time>
      </trkpt>
      <trkpt lat="47.69824" lon="6.00601">
        <ele>254.3</ele>
        <time>2017-09-20T08:12:32Z</time>
      </trkpt>
      <trkpt lat="47.69833" lon="6.00574">
        <ele>258.52</ele>
        <time>2017-09-20T08:12:44Z</time>
      </trkpt>
      <trkpt lat="47.69844" lon="6.0055">
        <ele>263.76</ele>
        <time>2017-09-20T08:12:56Z</time>
      </trkpt>
      <trkpt lat="47.69855" lon="6.00527">
        <ele>267.66</ele>
        <time>2017-09-20T08:13:06Z</time>
      </trkpt>
      <trkpt lat="47.69861" lon="6.005">
        <ele>273.02</ele>
        <time>2017-09-20T08:13:22Z</time>
      </trkpt>
      <trkpt lat="47.6987" lon="6.00475">
        <ele>276.21</ele>
        <time>2017-09-20T08:13:34Z</time>
      </trkpt>
      <trkpt lat="47.69882" lon="6.00454">
        <ele>278.29</ele>
        <time>2017-09-20T08:13:43Z</time>
      </trkpt>
      <trkpt lat="47.69891" lon="6.00429">
        <ele>280.39</ele>
        <time>2017-09-20T08:13:53Z</time>
      </trkpt>
      <trkpt lat="47.69901" lon="6.00406">
        <ele>282.06</ele>
        <time>2017-09-20T08:14:02Z</time>
      </trkpt>
      <trkpt lat="47.69916" lon="6.00386">
        <ele>283.39</ele>
        <time>2017-09-20T08:14:10Z</time>
      </trkpt>
      <trkpt lat="47.69929" lon="6.00366">
        <ele>285.11</ele>
        <time>2017-09-20T08:14:21Z</time>
      </trkpt>
      <trkpt lat="47.69939" lon="6.00344">
        <ele>286.3</ele>
        <time>2017-09-20T08:14:29Z</time>
      </trkpt>
      <trkpt lat="47.69951" lon="6.00321">
        <ele>287.76</ele>
        <time>2017-09-20T08:14:39Z</time>
      </trkpt>
      <trkpt lat="47.69964" lon="6.00299">
        <ele>288.86</ele>
        <time>2017-09-20T08:14:47Z</time>
      </trkpt>
      <trkpt lat="47.69978" lon="6.0028">
        <ele>290.05</ele>
        <time>2017-09-20T08:14:57Z</time>
      </trkpt>
      <trkpt lat="47.69993" lon="6.00263">
        <ele>290.81</ele>
        <time>2017-09-20T08:15:04Z</time>
      </trkpt>
      <trkpt lat="47.70005" lon="6.0024">
        <ele>291.64</ele>
        <time>2017-09-20T08:15:12Z</time>
      </trkpt>
      <trkpt lat="47.70015" lon="6.00217">
        <ele>292.69</ele>
        <time>2017-09-20T08:15:22Z</time>
      </trkpt>
      <trkpt lat="47.70003" lon="6.00197">
        <ele>293.85</ele>
        <time>2017-09-20T08:15:33Z</time>
      </trkpt>
      <trkpt lat="47.69993" lon="6.00172">
        <ele>295.19</ele>
        <time>2017-09-20T08:15:49Z</time>
      </trkpt>
      <trkpt lat="47.69978" lon="6.00154">
        <ele>295.98</ele>
        <time>2017-09-20T08:16:00Z</time>
      </trkpt>
      <trkpt lat="47.69963" lon="6.00139">
        <ele>296.86</ele>
        <time>2017-09-20T08:16:14Z</time>
      </trkpt>
      <trkpt lat="47.6995" lon="6.00119">
        <ele>297.41</ele>
        <time>2017-09-20T08:16:24Z</time>
      </trkpt>
      <trkpt lat="47.69936" lon="6.001">
        <ele>298.02</ele>
        <time>2017-09-20T08:16:36Z</time>
      </trkpt>
      <trkpt lat="47.69922" lon="6.0008">
        <ele>298.31</ele>
        <time>2017-09-20T08:16:42Z</time>
      </trkpt>
      <trkpt lat="47.69908" lon="6.00063">
        <ele>299.23</ele>
        <time>2017-09-20T08:16:59Z</time>
      </trkpt>
      <trkpt lat="47.69893" lon="6.00044">
        <ele>299.88</ele>
        <time>2017-09-20T08:17:11Z</time>
      </trkpt>
      <trkpt lat="47.69879" lon="6.00024">
        <ele>300.4</ele>
        <time>2017-09-20T08:17:20Z</time>
      </trkpt>
      <trkpt lat="47.69864" lon="6.00005">
        <ele>301.31</ele>
        <time>2017-09-20T08:17:36Z</time>
      </trkpt>
      <trkpt lat="47.69849" lon="5.99988">
        <ele>301.98</ele>
        <time>2017-09-20T08:17:49Z</time>
      </trkpt>
      <trkpt lat="47.69835" lon="5.99971">
        <ele>302.38</ele>
        <time>2017-09-20T08:17:58Z</time>
      </trkpt>
      <trkpt lat="47.6982" lon="5.99955">
        <ele>302.63</ele>
        <time>2017-09-20T08:18:04Z</time>
      </trkpt>
      <trkpt lat="47.69805" lon="5.99937">
        <ele>302.91</ele>
        <time>2017-09-20T08:18:11Z</time>
      </trkpt>
      <trkpt lat="47.69789" lon="5.9992">
        <ele>303.18</ele>
        <time>2017-09-20T08:18:19Z</time>
      </trkpt>
      <trkpt lat="47.69774" lon="5.99902">
        <ele>303.36</ele>
        <time>2017-09-20T08:18:26Z</time>
      </trkpt>
      <trkpt lat="47.69766" lon="5.99878">
        <ele>303.95</ele>
        <time>2017-09-20T08:20:04Z</time>
      </trkpt>
      <trkpt lat="47.69782" lon="5.99861">
        <ele>305.52</ele>
        <time>2017-09-20T08:20:33Z</time>
      </trkpt>
      <trkpt lat="47.69799" lon="5.99847">
        <ele>306.1</ele>
        <time>2017-09-20T08:20:42Z</time>
      </trkpt>
      <trkpt lat="47.69816" lon="5.99836">
        <ele>306.65</ele>
        <time>2017-09-20T08:20:51Z</time>
      </trkpt>
      <trkpt lat="47.69832" lon="5.99823">
        <ele>307.05</ele>
        <time>2017-09-20T08:20:58Z</time>
      </trkpt>
      <trkpt lat="47.69848" lon="5.99808">
        <ele>307.45</ele>
        <time>2017-09-20T08:21:06Z</time>
      </trkpt>
      <trkpt lat="47.69865" lon="5.99798">
        <ele>307.76</ele>
        <time>2017-09-20T08:21:13Z</time>
      </trkpt>
      <trkpt lat="47.69878" lon="5.99774">
        <ele>308.1</ele>
        <time>2017-09-20T08:21:22Z</time>
      </trkpt>
      <trkpt lat="47.69893" lon="5.99758">
        <ele>308.37</ele>
        <time>2017-09-20T08:21:31Z</time>
      </trkpt>
      <trkpt lat="47.69906" lon="5.99738">
        <ele>308.59</ele>
        <time>2017-09-20T08:21:42Z</time>
      </trkpt>
      <trkpt lat="47.69921" lon="5.9972">
        <ele>308.68</ele>
        <time>2017-09-20T08:21:49Z</time>
      </trkpt>
      <trkpt lat="47.69938" lon="5.99705">
        <ele>308.76</ele>
        <time>2017-09-20T08:21:56Z</time>
      </trkpt>
      <trkpt lat="47.69955" lon="5.99691">
        <ele>308.83</ele>
        <time>2017-09-20T08:22:04Z</time>
      </trkpt>
      <trkpt lat="47.69967" lon="5.99671">
        <ele>308.86</ele>
        <time>2017-09-20T08:22:10Z</time>
      </trkpt>
      <trkpt lat="47.69982" lon="5.99648">
        <ele>308.89</ele>
        <time>2017-09-20T08:22:16Z</time>
      </trkpt>
      <trkpt lat="47.69995" lon="5.99626">
        <ele>308.94</ele>
        <time>2017-09-20T08:22:23Z</time>
      </trkpt>
      <trkpt lat="47.70008" lon="5.99604">
        <ele>309.02</ele>
        <time>2017-09-20T08:22:35Z</time>
      </trkpt>
      <trkpt lat="47.70019" lon="5.99582">
        <ele>309.13</ele>
        <time>2017-09-20T08:22:46Z</time>
      </trkpt>
      <trkpt lat="47.70026" lon="5.99555">
        <ele>309.21</ele>
        <time>2017-09-20T08:22:57Z</time>
      </trkpt>
      <trkpt lat="47.70038" lon="5.99532">
        <ele>309.18</ele>
        <time>2017-09-20T08:23:11Z</time>
      </trkpt>
      <trkpt lat="47.70045" lon="5.99508">
        <ele>309.09</ele>
        <time>2017-09-20T08:23:24Z</time>
      </trkpt>
      <trkpt lat="47.70055" lon="5.99484">
        <ele>308.95</ele>
        <time>2017-09-20T08:23:31Z</time>
      </trkpt>
      <trkpt lat="47.70071" lon="5.99474">
        <ele>308.78</ele>
        <time>2017-09-20T08:23:38Z</time>
      </trkpt>
      <trkpt lat="47.70083" lon="5.99453">
        <ele>308.62</ele>
        <time>2017-09-20T08:23:46Z</time>
      </trkpt>
      <trkpt lat="47.70095" lon="5.99431">
        <ele>308.35</ele>
        <time>2017-09-20T08:23:57Z</time>
      </trkpt>
      <trkpt lat="47.70108" lon="5.99411">
        <ele>308.12</ele>
        <time>2017-09-20T08:24:07Z</time>
      </trkpt>
      <trkpt lat="47.7012" lon="5.99388">
        <ele>307.93</ele>
        <time>2017-09-20T08:24:18Z</time>
      </trkpt>
      <trkpt lat="47.70131" lon="5.99366">
        <ele>307.79</ele>
        <time>2017-09-20T08:24:27Z</time>
      </trkpt>
      <trkpt lat="47.70149" lon="5.99368">
        <ele>307.44</ele>
        <time>2017-09-20T08:25:41Z</time>
      </trkpt>
      <trkpt lat="47.70161" lon="5.99349">
        <ele>306.46</ele>
        <time>2017-09-20T08:26:41Z</time>
      </trkpt>
      <trkpt lat="47.70177" lon="5.99332">
        <ele>306.06</ele>
        <time>2017-09-20T08:27:08Z</time>
      </trkpt>
      <trkpt lat="47.70195" lon="5.99323">
        <ele>305.98</ele>
        <time>2017-09-20T08:27:15Z</time>
      </trkpt>
      <trkpt lat="47.70212" lon="5.99315">
        <ele>305.9</ele>
        <time>2017-09-20T08:27:25Z</time>
      </trkpt>
      <trkpt lat="47.70231" lon="5.9931">
        <ele>305.84</ele>
        <time>2017-09-20T08:27:36Z</time>
      </trkpt>
      <trkpt lat="47.70248" lon="5.99299">
        <ele>305.79</ele>
        <time>2017-09-20T08:27:47Z</time>
      </trkpt>
      <trkpt lat="47.70265" lon="5.99289">
        <ele>305.78</ele>
        <time>2017-09-20T08:28:01Z</time>
      </trkpt>
      <trkpt lat="47.70284" lon="5.99281">
        <ele>305.77</ele>
        <time>2017-09-20T08:28:08Z</time>
      </trkpt>
      <trkpt lat="47.70302" lon="5.99272">
        <ele>305.77</ele>
        <time>2017-09-20T08:28:17Z</time>
      </trkpt>
      <trkpt lat="47.70319" lon="5.99261">
        <ele>305.8</ele>
        <time>2017-09-20T08:28:24Z</time>
      </trkpt>
      <trkpt lat="47.70335" lon="5.9925">
        <ele>305.9</ele>
        <time>2017-09-20T08:28:33Z</time>
      </trkpt>
      <trkpt lat="47.70354" lon="5.99242">
        <ele>306.03</ele>
        <time>2017-09-20T08:28:42Z</time>
      </trkpt>
      <trkpt lat="47.70371" lon="5.99231">
        <ele>306.25</ele>
        <time>2017-09-20T08:28:55Z</time>
      </trkpt>
      <trkpt lat="47.70387" lon="5.99218">
        <ele>306.54</ele>
        <time>2017-09-20T08:29:11Z</time>
      </trkpt>
      <trkpt lat="47.70407" lon="5.9921">
        <ele>306.8</ele>
        <time>2017-09-20T08:29:28Z</time>
      </trkpt>
      <trkpt lat="47.70425" lon="5.99206">
        <ele>306.93</ele>
        <time>2017-09-20T08:29:37Z</time>
      </trkpt>
      <trkpt lat="47.70443" lon="5.992">
        <ele>307.05</ele>
        <time>2017-09-20T08:29:45Z</time>
      </trkpt>
      <trkpt lat="47.70454" lon="5.99176">
        <ele>307.38</ele>
        <time>2017-09-20T08:30:02Z</time>
      </trkpt>
      <trkpt lat="47.70467" lon="5.99155">
        <ele>307.75</ele>
        <time>2017-09-20T08:30:40Z</time>
      </trkpt>
      <trkpt lat="47.70482" lon="5.99139">
        <ele>308</ele>
        <time>2017-09-20T08:30:50Z</time>
      </trkpt>
      <trkpt lat="47.70497" lon="5.9912">
        <ele>308.23</ele>
        <time>2017-09-20T08:31:00Z</time>
      </trkpt>
      <trkpt lat="47.7051" lon="5.99099">
        <ele>308.5</ele>
        <time>2017-09-20T08:31:13Z</time>
      </trkpt>
      <trkpt lat="47.70523" lon="5.99079">
        <ele>308.7</ele>
        <time>2017-09-20T08:31:25Z</time>
      </trkpt>
      <trkpt lat="47.70537" lon="5.99062">
        <ele>308.85</ele>
        <time>2017-09-20T08:31:36Z</time>
      </trkpt>
      <trkpt lat="47.70546" lon="5.99038">
        <ele>308.93</ele>
        <time>2017-09-20T08:31:48Z</time>
      </trkpt>
      <trkpt lat="47.70557" lon="5.99015">
        <ele>309.19</ele>
        <time>2017-09-20T08:32:02Z</time>
      </trkpt>
      <trkpt lat="47.70569" lon="5.98994">
        <ele>309.65</ele>
        <time>2017-09-20T08:32:17Z</time>
      </trkpt>
      <trkpt lat="47.70582" lon="5.98974">
        <ele>311.04</ele>
        <time>2017-09-20T08:33:29Z</time>
      </trkpt>
      <trkpt lat="47.70598" lon="5.98956">
        <ele>311.82</ele>
        <time>2017-09-20T08:33:40Z</time>
      </trkpt>
      <trkpt lat="47.70613" lon="5.98938">
        <ele>312.37</ele>
        <time>2017-09-20T08:33:49Z</time>
      </trkpt>
      <trkpt lat="47.70628" lon="5.98923">
        <ele>313.03</ele>
        <time>2017-09-20T08:34:00Z</time>
      </trkpt>
      <trkpt lat="47.70629" lon="5.98896">
        <ele>313.73</ele>
        <time>2017-09-20T08:34:12Z</time>
      </trkpt>
      <trkpt lat="47.70629" lon="5.98866">
        <ele>314.74</ele>
        <time>2017-09-20T08:34:28Z</time>
      </trkpt>
      <trkpt lat="47.70623" lon="5.9884">
        <ele>315.42</ele>
        <time>2017-09-20T08:34:39Z</time>
      </trkpt>
      <trkpt lat="47.70605" lon="5.98839">
        <ele>316.09</ele>
        <time>2017-09-20T08:34:51Z</time>
      </trkpt>
      <trkpt lat="47.70586" lon="5.98849">
        <ele>316.81</ele>
        <time>2017-09-20T08:35:03Z</time>
      </trkpt>
      <trkpt lat="47.70569" lon="5.98859">
        <ele>317.3</ele>
        <time>2017-09-20T08:35:11Z</time>
      </trkpt>
      <trkpt lat="47.70552" lon="5.98871">
        <ele>317.88</ele>
        <time>2017-09-20T08:35:21Z</time>
      </trkpt>
      <trkpt lat="47.70534" lon="5.98881">
        <ele>318.25</ele>
        <time>2017-09-20T08:35:28Z</time>
      </trkpt>
      <trkpt lat="47.70517" lon="5.98889">
        <ele>318.69</ele>
        <time>2017-09-20T08:35:37Z</time>
      </trkpt>
      <trkpt lat="47.70498" lon="5.98895">
        <ele>319.38</ele>
        <time>2017-09-20T08:36:02Z</time>
      </trkpt>
      <trkpt lat="47.7048" lon="5.98894">
        <ele>320.08</ele>
        <time>2017-09-20T08:36:25Z</time>
      </trkpt>
      <trkpt lat="47.70464" lon="5.98877">
        <ele>321.2</ele>
        <time>2017-09-20T08:37:28Z</time>
      </trkpt>
      <trkpt lat="47.70445" lon="5.98873">
        <ele>321.42</ele>
        <time>2017-09-20T08:37:40Z</time>
      </trkpt>
      <trkpt lat="47.70425" lon="5.98871">
        <ele>321.74</ele>
        <time>2017-09-20T08:37:52Z</time>
      </trkpt>
      <trkpt lat="47.70408" lon="5.9886">
        <ele>321.91</ele>
        <time>2017-09-20T08:37:59Z</time>
      </trkpt>
      <trkpt lat="47.7039" lon="5.98848">
        <ele>322.05</ele>
        <time>2017-09-20T08:38:05Z</time>
      </trkpt>
      <trkpt lat="47.70372" lon="5.98838">
        <ele>322.31</ele>
        <time>2017-09-20T08:38:16Z</time>
      </trkpt>
      <trkpt lat="47.70353" lon="5.98838">
        <ele>322.47</ele>
        <time>2017-09-20T08:38:23Z</time>
      </trkpt>
      <trkpt lat="47.70335" lon="5.98833">
        <ele>322.72</ele>
        <time>2017-09-20T08:38:48Z</time>
      </trkpt>
      <trkpt lat="47.70352" lon="5.98841">
        <ele>323.41</ele>
        <time>2017-09-20T08:40:03Z</time>
      </trkpt>
      <trkpt lat="47.7037" lon="5.98846">
        <ele>323.61</ele>
        <time>2017-09-20T08:40:15Z</time>
      </trkpt>
      <trkpt lat="47.70387" lon="5.98854">
        <ele>323.78</ele>
        <time>2017-09-20T08:40:28Z</time>
      </trkpt>
      <trkpt lat="47.70405" lon="5.98861">
        <ele>323.92</ele>
        <time>2017-09-20T08:40:37Z</time>
      </trkpt>
      <trkpt lat="47.70425" lon="5.98869">
        <ele>324.06</ele>
        <time>2017-09-20T08:40:46Z</time>
      </trkpt>
      <trkpt lat="47.70444" lon="5.98874">
        <ele>324.23</ele>
        <time>2017-09-20T08:40:58Z</time>
      </trkpt>
      <trkpt lat="47.7046" lon="5.98885">
        <ele>324.33</ele>
        <time>2017-09-20T08:41:07Z</time>
      </trkpt>
      <trkpt lat="47.70479" lon="5.98892">
        <ele>324.49</ele>
        <time>2017-09-20T08:41:22Z</time>
      </trkpt>
      <trkpt lat="47.70496" lon="5.98902">
        <ele>324.55</ele>
        <time>2017-09-20T08:41:33Z</time>
      </trkpt>
      <trkpt lat="47.70516" lon="5.98896">
        <ele>324.59</ele>
        <time>2017-09-20T08:41:41Z</time>
      </trkpt>
      <trkpt lat="47.70535" lon="5.98885">
        <ele>324.64</ele>
        <time>2017-09-20T08:41:50Z</time>
      </trkpt>
      <trkpt lat="47.7055" lon="5.98868">
        <ele>324.71</ele>
        <time>2017-09-20T08:42:03Z</time>
      </trkpt>
      <trkpt lat="47.70567" lon="5.98852">
        <ele>324.78</ele>
        <time>2017-09-20T08:42:13Z</time>
      </trkpt>
      <trkpt lat="47.70583" lon="5.98841">
        <ele>324.81</ele>
        <time>2017-09-20T08:42:23Z</time>
      </trkpt>
      <trkpt lat="47.70598" lon="5.98824">
        <ele>324.81</ele>
        <time>2017-09-20T08:42:32Z</time>
      </trkpt>
      <trkpt lat="47.70611" lon="5.98799">
        <ele>324.82</ele>
        <time>2017-09-20T08:42:43Z</time>
      </trkpt>
      <trkpt lat="47.70616" lon="5.98774">
        <ele>324.83</ele>
        <time>2017-09-20T08:42:51Z</time>
      </trkpt>
      <trkpt lat="47.70623" lon="5.98749">
        <ele>324.82</ele>
        <time>2017-09-20T08:43:01Z</time>
      </trkpt>
      <trkpt lat="47.70632" lon="5.98723">
        <ele>324.77</ele>
        <time>2017-09-20T08:43:11Z</time>
      </trkpt>
      <trkpt lat="47.70639" lon="5.98694">
        <ele>324.73</ele>
        <time>2017-09-20T08:43:19Z</time>
      </trkpt>
      <trkpt lat="47.70641" lon="5.98665">
        <ele>324.65</ele>
        <time>2017-09-20T08:43:30Z</time>
      </trkpt>
      <trkpt lat="47.7065" lon="5.98641">
        <ele>324.47</ele>
        <time>2017-09-20T08:43:39Z</time>
      </trkpt>
      <trkpt lat="47.70662" lon="5.98618">
        <ele>324.18</ele>
        <time>2017-09-20T08:43:50Z</time>
      </trkpt>
      <trkpt lat="47.70678" lon="5.98602">
        <ele>324.01</ele>
        <time>2017-09-20T08:44:03Z</time>
      </trkpt>
      <trkpt lat="47.70696" lon="5.98596">
        <ele>324.01</ele>
        <time>2017-09-20T08:44:57Z</time>
      </trkpt>
      <trkpt lat="47.70716" lon="5.98591">
        <ele>324.73</ele>
        <time>2017-09-20T08:45:35Z</time>
      </trkpt>
      <trkpt lat="47.70735" lon="5.98596">
        <ele>324.86</ele>
        <time>2017-09-20T08:45:40Z</time>
      </trkpt>
      <trkpt lat="47.70756" lon="5.98602">
        <ele>325.05</ele>
        <time>2017-09-20T08:45:47Z</time>
      </trkpt>
      <trkpt lat="47.70778" lon="5.98602">
        <ele>325.22</ele>
        <time>2017-09-20T08:45:53Z</time>
      </trkpt>
      <trkpt lat="47.70801" lon="5.98601">
        <ele>325.62</ele>
        <time>2017-09-20T08:45:59Z</time>
      </trkpt>
      <trkpt lat="47.70823" lon="5.98596">
        <ele>326.18</ele>
        <time>2017-09-20T08:46:03Z</time>
      </trkpt>
      <trkpt lat="47.70842" lon="5.9859">
        <ele>325.84</ele>
        <time>2017-09-20T08:46:06Z</time>
      </trkpt>
      <trkpt lat="47.70864" lon="5.98584">
        <ele>324.88</ele>
        <time>2017-09-20T08:46:09Z</time>
      </trkpt>
      <trkpt lat="47.70884" lon="5.98575">
        <ele>323.92</ele>
        <time>2017-09-20T08:46:12Z</time>
      </trkpt>
      <trkpt lat="47.70908" lon="5.98565">
        <ele>323.43</ele>
        <time>2017-09-20T08:46:15Z</time>
      </trkpt>
      <trkpt lat="47.70926" lon="5.98557">
        <ele>323.38</ele>
        <time>2017-09-20T08:46:17Z</time>
      </trkpt>
      <trkpt lat="47.70946" lon="5.9855">
        <ele>323.67</ele>
        <time>2017-09-20T08:46:19Z</time>
      </trkpt>
      <trkpt lat="47.70965" lon="5.98543">
        <ele>323.92</ele>
        <time>2017-09-20T08:46:21Z</time>
      </trkpt>
      <trkpt lat="47.70984" lon="5.98533">
        <ele>323.87</ele>
        <time>2017-09-20T08:46:23Z</time>
      </trkpt>
      <trkpt lat="47.71004" lon="5.98523">
        <ele>323.64</ele>
        <time>2017-09-20T08:46:25Z</time>
      </trkpt>
      <trkpt lat="47.71023" lon="5.98514">
        <ele>323.3</ele>
        <time>2017-09-20T08:46:27Z</time>
      </trkpt>
      <trkpt lat="47.71043" lon="5.98503">
        <ele>322.81</ele>
        <time>2017-09-20T08:46:29Z</time>
      </trkpt>
      <trkpt lat="47.71065" lon="5.9849">
        <ele>321.98</ele>
        <time>2017-09-20T08:46:32Z</time>
      </trkpt>
      <trkpt lat="47.71085" lon="5.98477">
        <ele>320.7</ele>
        <time>2017-09-20T08:46:36Z</time>
      </trkpt>
      <trkpt lat="47.71103" lon="5.98463">
        <ele>319.81</ele>
        <time>2017-09-20T08:46:40Z</time>
      </trkpt>
      <trkpt lat="47.71117" lon="5.98441">
        <ele>319.47</ele>
        <time>2017-09-20T08:47:25Z</time>
      </trkpt>
      <trkpt lat="47.71132" lon="5.98422">
        <ele>317.74</ele>
        <time>2017-09-20T08:48:14Z</time>
      </trkpt>
      <trkpt lat="47.71151" lon="5.9842">
        <ele>317.07</ele>
        <time>2017-09-20T08:48:21Z</time>
      </trkpt>
      <trkpt lat="47.71168" lon="5.98432">
        <ele>316.55</ele>
        <time>2017-09-20T08:48:27Z</time>
      </trkpt>
      <trkpt lat="47.71185" lon="5.98452">
        <ele>316.09</ele>
        <time>2017-09-20T08:48:33Z</time>
      </trkpt>
      <trkpt lat="47.71199" lon="5.9847">
        <ele>315.81</ele>
        <time>2017-09-20T08:48:38Z</time>
      </trkpt>
      <trkpt lat="47.71215" lon="5.98488">
        <ele>315.67</ele>
        <time>2017-09-20T08:48:44Z</time>
      </trkpt>
      <trkpt lat="47.71229" lon="5.98506">
        <ele>315.66</ele>
        <time>2017-09-20T08:48:51Z</time>
      </trkpt>
      <trkpt lat="47.71246" lon="5.9852">
        <ele>315.53</ele>
        <time>2017-09-20T08:48:56Z</time>
      </trkpt>
      <trkpt lat="47.71261" lon="5.9854">
        <ele>315.5</ele>
        <time>2017-09-20T08:49:01Z</time>
      </trkpt>
      <trkpt lat="47.71278" lon="5.98549">
        <ele>315.46</ele>
        <time>2017-09-20T08:49:06Z</time>
      </trkpt>
      <trkpt lat="47.71296" lon="5.98554">
        <ele>315.43</ele>
        <time>2017-09-20T08:49:11Z</time>
      </trkpt>
      <trkpt lat="47.71315" lon="5.98558">
        <ele>315.41</ele>
        <time>2017-09-20T08:49:16Z</time>
      </trkpt>
      <trkpt lat="47.71336" lon="5.98559">
        <ele>315.4</ele>
        <time>2017-09-20T08:49:18Z</time>
      </trkpt>
      <trkpt lat="47.71357" lon="5.9856">
        <ele>315.36</ele>
        <time>2017-09-20T08:49:20Z</time>
      </trkpt>
      <trkpt lat="47.71376" lon="5.98557">
        <ele>315.19</ele>
        <time>2017-09-20T08:49:26Z</time>
      </trkpt>
      <trkpt lat="47.71395" lon="5.98556">
        <ele>315.03</ele>
        <time>2017-09-20T08:49:32Z</time>
      </trkpt>
      <trkpt lat="47.71415" lon="5.98549">
        <ele>314.89</ele>
        <time>2017-09-20T08:49:38Z</time>
      </trkpt>
      <trkpt lat="47.71433" lon="5.98544">
        <ele>314.78</ele>
        <time>2017-09-20T08:49:42Z</time>
      </trkpt>
      <trkpt lat="47.71452" lon="5.98539">
        <ele>314.64</ele>
        <time>2017-09-20T08:49:47Z</time>
      </trkpt>
      <trkpt lat="47.71471" lon="5.9854">
        <ele>314.46</ele>
        <time>2017-09-20T08:49:57Z</time>
      </trkpt>
      <trkpt lat="47.71489" lon="5.98547">
        <ele>314.42</ele>
        <time>2017-09-20T08:50:07Z</time>
      </trkpt>
      <trkpt lat="47.71507" lon="5.98556">
        <ele>314.44</ele>
        <time>2017-09-20T08:50:13Z</time>
      </trkpt>
      <trkpt lat="47.71525" lon="5.98556">
        <ele>314.54</ele>
        <time>2017-09-20T08:50:24Z</time>
      </trkpt>
      <trkpt lat="47.71543" lon="5.98565">
        <ele>314.75</ele>
        <time>2017-09-20T08:50:35Z</time>
      </trkpt>
      <trkpt lat="47.71559" lon="5.98578">
        <ele>314.89</ele>
        <time>2017-09-20T08:50:41Z</time>
      </trkpt>
      <trkpt lat="47.71575" lon="5.98597">
        <ele>315.11</ele>
        <time>2017-09-20T08:50:49Z</time>
      </trkpt>
      <trkpt lat="47.71591" lon="5.98611">
        <ele>315.39</ele>
        <time>2017-09-20T08:50:57Z</time>
      </trkpt>
      <trkpt lat="47.71608" lon="5.98619">
        <ele>315.64</ele>
        <time>2017-09-20T08:51:03Z</time>
      </trkpt>
      <trkpt lat="47.71629" lon="5.98624">
        <ele>315.94</ele>
        <time>2017-09-20T08:51:10Z</time>
      </trkpt>
      <trkpt lat="47.71646" lon="5.98641">
        <ele>316.15</ele>
        <time>2017-09-20T08:51:15Z</time>
      </trkpt>
      <trkpt lat="47.71663" lon="5.98655">
        <ele>316.4</ele>
        <time>2017-09-20T08:51:21Z</time>
      </trkpt>
      <trkpt lat="47.71681" lon="5.98666">
        <ele>316.75</ele>
        <time>2017-09-20T08:51:29Z</time>
      </trkpt>
      <trkpt lat="47.71697" lon="5.9868">
        <ele>317.01</ele>
        <time>2017-09-20T08:51:36Z</time>
      </trkpt>
      <trkpt lat="47.71714" lon="5.98695">
        <ele>317.23</ele>
        <time>2017-09-20T08:51:42Z</time>
      </trkpt>
      <trkpt lat="47.71732" lon="5.98711">
        <ele>317.54</ele>
        <time>2017-09-20T08:51:49Z</time>
      </trkpt>
      <trkpt lat="47.71749" lon="5.98731">
        <ele>317.97</ele>
        <time>2017-09-20T08:51:53Z</time>
      </trkpt>
      <trkpt lat="47.71768" lon="5.9875">
        <ele>318.75</ele>
        <time>2017-09-20T08:51:56Z</time>
      </trkpt>
      <trkpt lat="47.71785" lon="5.98768">
        <ele>318.87</ele>
        <time>2017-09-20T08:51:59Z</time>
      </trkpt>
      <trkpt lat="47.71801" lon="5.98791">
        <ele>318.93</ele>
        <time>2017-09-20T08:52:03Z</time>
      </trkpt>
      <trkpt lat="47.71815" lon="5.98813">
        <ele>319</ele>
        <time>2017-09-20T08:52:08Z</time>
      </trkpt>
      <trkpt lat="47.71829" lon="5.98831">
        <ele>319.11</ele>
        <time>2017-09-20T08:52:14Z</time>
      </trkpt>
      <trkpt lat="47.71842" lon="5.98852">
        <ele>319.22</ele>
        <time>2017-09-20T08:52:20Z</time>
      </trkpt>
      <trkpt lat="47.71857" lon="5.98868">
        <ele>319.3</ele>
        <time>2017-09-20T08:52:25Z</time>
      </trkpt>
      <trkpt lat="47.71873" lon="5.98887">
        <ele>319.38</ele>
        <time>2017-09-20T08:52:32Z</time>
      </trkpt>
      <trkpt lat="47.71891" lon="5.989">
        <ele>319.45</ele>
        <time>2017-09-20T08:52:38Z</time>
      </trkpt>
      <trkpt lat="47.71904" lon="5.98922">
        <ele>319.51</ele>
        <time>2017-09-20T08:52:45Z</time>
      </trkpt>
      <trkpt lat="47.71919" lon="5.98943">
        <ele>319.61</ele>
        <time>2017-09-20T08:52:53Z</time>
      </trkpt>
      <trkpt lat="47.71933" lon="5.98965">
        <ele>319.72</ele>
        <time>2017-09-20T08:53:00Z</time>
      </trkpt>
      <trkpt lat="47.71943" lon="5.98988">
        <ele>319.86</ele>
        <time>2017-09-20T08:53:07Z</time>
      </trkpt>
      <trkpt lat="47.71956" lon="5.99008">
        <ele>320.07</ele>
        <time>2017-09-20T08:53:16Z</time>
      </trkpt>
      <trkpt lat="47.71974" lon="5.9902">
        <ele>320.25</ele>
        <time>2017-09-20T08:53:23Z</time>
      </trkpt>
      <trkpt lat="47.71991" lon="5.99027">
        <ele>320.36</ele>
        <time>2017-09-20T08:53:27Z</time>
      </trkpt>
      <trkpt lat="47.72012" lon="5.99033">
        <ele>320.5</ele>
        <time>2017-09-20T08:53:32Z</time>
      </trkpt>
      <trkpt lat="47.72029" lon="5.99043">
        <ele>320.73</ele>
        <time>2017-09-20T08:53:40Z</time>
      </trkpt>
      <trkpt lat="47.72049" lon="5.99055">
        <ele>320.93</ele>
        <time>2017-09-20T08:53:47Z</time>
      </trkpt>
      <trkpt lat="47.72066" lon="5.99067">
        <ele>321.17</ele>
        <time>2017-09-20T08:53:56Z</time>
      </trkpt>
      <trkpt lat="47.72085" lon="5.99072">
        <ele>321.42</ele>
        <time>2017-09-20T08:54:05Z</time>
      </trkpt>
      <trkpt lat="47.72105" lon="5.9908">
        <ele>321.71</ele>
        <time>2017-09-20T08:54:15Z</time>
      </trkpt>
      <trkpt lat="47.72124" lon="5.99087">
        <ele>321.98</ele>
        <time>2017-09-20T08:54:24Z</time>
      </trkpt>
      <trkpt lat="47.72142" lon="5.99095">
        <ele>322.21</ele>
        <time>2017-09-20T08:54:32Z</time>
      </trkpt>
      <trkpt lat="47.7216" lon="5.99102">
        <ele>322.53</ele>
        <time>2017-09-20T08:54:43Z</time>
      </trkpt>
      <trkpt lat="47.72182" lon="5.9911">
        <ele>322.7</ele>
        <time>2017-09-20T08:54:49Z</time>
      </trkpt>
      <trkpt lat="47.72199" lon="5.99119">
        <ele>322.88</ele>
        <time>2017-09-20T08:54:55Z</time>
      </trkpt>
      <trkpt lat="47.72214" lon="5.99135">
        <ele>323.03</ele>
        <time>2017-09-20T08:55:00Z</time>
      </trkpt>
      <trkpt lat="47.7223" lon="5.99152">
        <ele>323.22</ele>
        <time>2017-09-20T08:55:07Z</time>
      </trkpt>
      <trkpt lat="47.72241" lon="5.99176">
        <ele>323.41</ele>
        <time>2017-09-20T08:55:15Z</time>
      </trkpt>
      <trkpt lat="47.72261" lon="5.99182">
        <ele>323.49</ele>
        <time>2017-09-20T08:55:19Z</time>
      </trkpt>
      <trkpt lat="47.72279" lon="5.99186">
        <ele>323.57</ele>
        <time>2017-09-20T08:55:23Z</time>
      </trkpt>
      <trkpt lat="47.72301" lon="5.992">
        <ele>323.66</ele>
        <time>2017-09-20T08:55:28Z</time>
      </trkpt>
      <trkpt lat="47.72316" lon="5.99215">
        <ele>323.74</ele>
        <time>2017-09-20T08:55:32Z</time>
      </trkpt>
      <trkpt lat="47.72334" lon="5.99225">
        <ele>323.79</ele>
        <time>2017-09-20T08:55:35Z</time>
      </trkpt>
      <trkpt lat="47.72351" lon="5.9924">
        <ele>323.86</ele>
        <time>2017-09-20T08:55:39Z</time>
      </trkpt>
      <trkpt lat="47.7237" lon="5.99256">
        <ele>323.94</ele>
        <time>2017-09-20T08:55:43Z</time>
      </trkpt>
      <trkpt lat="47.72386" lon="5.99269">
        <ele>324.04</ele>
        <time>2017-09-20T08:55:48Z</time>
      </trkpt>
      <trkpt lat="47.72404" lon="5.99279">
        <ele>324.15</ele>
        <time>2017-09-20T08:55:53Z</time>
      </trkpt>
      <trkpt lat="47.72421" lon="5.993">
        <ele>324.3</ele>
        <time>2017-09-20T08:56:01Z</time>
      </trkpt>
      <trkpt lat="47.72441" lon="5.99325">
        <ele>324.65</ele>
        <time>2017-09-20T08:56:04Z</time>
      </trkpt>
      <trkpt lat="47.72459" lon="5.99343">
        <ele>324.95</ele>
        <time>2017-09-20T08:56:08Z</time>
      </trkpt>
      <trkpt lat="47.72508" lon="5.99355">
        <ele>325.08</ele>
        <time>2017-09-20T08:56:12Z</time>
      </trkpt>
      <trkpt lat="47.72531" lon="5.99359">
        <ele>325.09</ele>
        <time>2017-09-20T08:56:13Z</time>
      </trkpt>
      <trkpt lat="47.72553" lon="5.99364">
        <ele>325.1</ele>
        <time>2017-09-20T08:56:14Z</time>
      </trkpt>
      <trkpt lat="47.72572" lon="5.99372">
        <ele>325.11</ele>
        <time>2017-09-20T08:56:16Z</time>
      </trkpt>
      <trkpt lat="47.72594" lon="5.9938">
        <ele>325.13</ele>
        <time>2017-09-20T08:56:19Z</time>
      </trkpt>
      <trkpt lat="47.72613" lon="5.9939">
        <ele>325.18</ele>
        <time>2017-09-20T08:56:25Z</time>
      </trkpt>
      <trkpt lat="47.72632" lon="5.99399">
        <ele>325.22</ele>
        <time>2017-09-20T08:56:30Z</time>
      </trkpt>
      <trkpt lat="47.72653" lon="5.99403">
        <ele>325.29</ele>
        <time>2017-09-20T08:56:37Z</time>
      </trkpt>
      <trkpt lat="47.72675" lon="5.99397">
        <ele>325.33</ele>
        <time>2017-09-20T08:56:41Z</time>
      </trkpt>
      <trkpt lat="47.72694" lon="5.99399">
        <ele>325.37</ele>
        <time>2017-09-20T08:56:45Z</time>
      </trkpt>
      <trkpt lat="47.72711" lon="5.99408">
        <ele>325.48</ele>
        <time>2017-09-20T08:56:54Z</time>
      </trkpt>
      <trkpt lat="47.72729" lon="5.99423">
        <ele>325.57</ele>
        <time>2017-09-20T08:57:02Z</time>
      </trkpt>
      <trkpt lat="47.72745" lon="5.99437">
        <ele>325.65</ele>
        <time>2017-09-20T08:57:10Z</time>
      </trkpt>
      <trkpt lat="47.72766" lon="5.99433">
        <ele>325.71</ele>
        <time>2017-09-20T08:57:17Z</time>
      </trkpt>
      <trkpt lat="47.72784" lon="5.9943">
        <ele>325.77</ele>
        <time>2017-09-20T08:57:24Z</time>
      </trkpt>
      <trkpt lat="47.72802" lon="5.99434">
        <ele>325.83</ele>
        <time>2017-09-20T08:57:31Z</time>
      </trkpt>
      <trkpt lat="47.72831" lon="5.99433">
        <ele>325.85</ele>
        <time>2017-09-20T08:57:34Z</time>
      </trkpt>
      <trkpt lat="47.7285" lon="5.99432">
        <ele>325.88</ele>
        <time>2017-09-20T08:57:37Z</time>
      </trkpt>
      <trkpt lat="47.72882" lon="5.99442">
        <ele>325.91</ele>
        <time>2017-09-20T08:57:41Z</time>
      </trkpt>
      <trkpt lat="47.72901" lon="5.99444">
        <ele>325.96</ele>
        <time>2017-09-20T08:57:48Z</time>
      </trkpt>
      <trkpt lat="47.72921" lon="5.99455">
        <ele>326.01</ele>
        <time>2017-09-20T08:57:55Z</time>
      </trkpt>
      <trkpt lat="47.72949" lon="5.99463">
        <ele>326.04</ele>
        <time>2017-09-20T08:57:59Z</time>
      </trkpt>
      <trkpt lat="47.72969" lon="5.99471">
        <ele>326.06</ele>
        <time>2017-09-20T08:58:02Z</time>
      </trkpt>
      <trkpt lat="47.72986" lon="5.99483">
        <ele>326.08</ele>
        <time>2017-09-20T08:58:06Z</time>
      </trkpt>
      <trkpt lat="47.73004" lon="5.99497">
        <ele>326.1</ele>
        <time>2017-09-20T08:58:10Z</time>
      </trkpt>
      <trkpt lat="47.73024" lon="5.9951">
        <ele>326.1</ele>
        <time>2017-09-20T08:58:15Z</time>
      </trkpt>
      <trkpt lat="47.73044" lon="5.99525">
        <ele>326.11</ele>
        <time>2017-09-20T08:58:19Z</time>
      </trkpt>
      <trkpt lat="47.73061" lon="5.99537">
        <ele>326.12</ele>
        <time>2017-09-20T08:58:22Z</time>
      </trkpt>
      <trkpt lat="47.73076" lon="5.99553">
        <ele>326.1</ele>
        <time>2017-09-20T08:58:24Z</time>
      </trkpt>
      <trkpt lat="47.73096" lon="5.99566">
        <ele>326.04</ele>
        <time>2017-09-20T08:58:26Z</time>
      </trkpt>
      <trkpt lat="47.73118" lon="5.9958">
        <ele>325.87</ele>
        <time>2017-09-20T08:58:28Z</time>
      </trkpt>
      <trkpt lat="47.73141" lon="5.9959">
        <ele>325.57</ele>
        <time>2017-09-20T08:58:31Z</time>
      </trkpt>
      <trkpt lat="47.73162" lon="5.99595">
        <ele>325.48</ele>
        <time>2017-09-20T08:58:33Z</time>
      </trkpt>
      <trkpt lat="47.73186" lon="5.99598">
        <ele>325.4</ele>
        <time>2017-09-20T08:58:35Z</time>
      </trkpt>
      <trkpt lat="47.73207" lon="5.99598">
        <ele>325.29</ele>
        <time>2017-09-20T08:58:37Z</time>
      </trkpt>
      <trkpt lat="47.7323" lon="5.99598">
        <ele>325.11</ele>
        <time>2017-09-20T08:58:40Z</time>
      </trkpt>
      <trkpt lat="47.7325" lon="5.99596">
        <ele>324.91</ele>
        <time>2017-09-20T08:58:42Z</time>
      </trkpt>
      <trkpt lat="47.73271" lon="5.9959">
        <ele>324.63</ele>
        <time>2017-09-20T08:58:44Z</time>
      </trkpt>
      <trkpt lat="47.73293" lon="5.99585">
        <ele>324.28</ele>
        <time>2017-09-20T08:58:46Z</time>
      </trkpt>
      <trkpt lat="47.73318" lon="5.99582">
        <ele>323.89</ele>
        <time>2017-09-20T08:58:48Z</time>
      </trkpt>
      <trkpt lat="47.73338" lon="5.99578">
        <ele>323.19</ele>
        <time>2017-09-20T08:58:51Z</time>
      </trkpt>
      <trkpt lat="47.73362" lon="5.99577">
        <ele>322.02</ele>
        <time>2017-09-20T08:58:56Z</time>
      </trkpt>
      <trkpt lat="47.73382" lon="5.99573">
        <ele>321.55</ele>
        <time>2017-09-20T08:59:01Z</time>
      </trkpt>
      <trkpt lat="47.73409" lon="5.99572">
        <ele>320.68</ele>
        <time>2017-09-20T08:59:10Z</time>
      </trkpt>
      <trkpt lat="47.73432" lon="5.99569">
        <ele>320.31</ele>
        <time>2017-09-20T08:59:13Z</time>
      </trkpt>
      <trkpt lat="47.7345" lon="5.99563">
        <ele>319.44</ele>
        <time>2017-09-20T08:59:20Z</time>
      </trkpt>
      <trkpt lat="47.73471" lon="5.99559">
        <ele>318.77</ele>
        <time>2017-09-20T08:59:25Z</time>
      </trkpt>
      <trkpt lat="47.7349" lon="5.99557">
        <ele>318.08</ele>
        <time>2017-09-20T08:59:29Z</time>
      </trkpt>
      <trkpt lat="47.73512" lon="5.99551">
        <ele>317.48</ele>
        <time>2017-09-20T08:59:32Z</time>
      </trkpt>
      <trkpt lat="47.73532" lon="5.99546">
        <ele>316.68</ele>
        <time>2017-09-20T08:59:36Z</time>
      </trkpt>
      <trkpt lat="47.7355" lon="5.99542">
        <ele>316.11</ele>
        <time>2017-09-20T08:59:39Z</time>
      </trkpt>
      <trkpt lat="47.73569" lon="5.99542">
        <ele>314.47</ele>
        <time>2017-09-20T08:59:42Z</time>
      </trkpt>
      <trkpt lat="47.73591" lon="5.99544">
        <ele>310.39</ele>
        <time>2017-09-20T08:59:45Z</time>
      </trkpt>
      <trkpt lat="47.73613" lon="5.99545">
        <ele>306.95</ele>
        <time>2017-09-20T08:59:49Z</time>
      </trkpt>
      <trkpt lat="47.73634" lon="5.99551">
        <ele>304.43</ele>
        <time>2017-09-20T08:59:54Z</time>
      </trkpt>
      <trkpt lat="47.73653" lon="5.99564">
        <ele>302.73</ele>
        <time>2017-09-20T08:59:59Z</time>
      </trkpt>
      <trkpt lat="47.73663" lon="5.99541">
        <ele>302.28</ele>
        <time>2017-09-20T09:00:09Z</time>
      </trkpt>
      <trkpt lat="47.73654" lon="5.99515">
        <ele>301.94</ele>
        <time>2017-09-20T09:00:16Z</time>
      </trkpt>
      <trkpt lat="47.73644" lon="5.9949">
        <ele>301.66</ele>
        <time>2017-09-20T09:00:22Z</time>
      </trkpt>
      <trkpt lat="47.73632" lon="5.99463">
        <ele>300.28</ele>
        <time>2017-09-20T09:00:28Z</time>
      </trkpt>
      <trkpt lat="47.73622" lon="5.99434">
        <ele>299.43</ele>
        <time>2017-09-20T09:00:33Z</time>
      </trkpt>
      <trkpt lat="47.73612" lon="5.99409">
        <ele>298.87</ele>
        <time>2017-09-20T09:00:37Z</time>
      </trkpt>
      <trkpt lat="47.73602" lon="5.99385">
        <ele>298.46</ele>
        <time>2017-09-20T09:00:41Z</time>
      </trkpt>
      <trkpt lat="47.7359" lon="5.99357">
        <ele>297.95</ele>
        <time>2017-09-20T09:00:46Z</time>
      </trkpt>
      <trkpt lat="47.73577" lon="5.99332">
        <ele>297.38</ele>
        <time>2017-09-20T09:00:51Z</time>
      </trkpt>
      <trkpt lat="47.73563" lon="5.99315">
        <ele>296.93</ele>
        <time>2017-09-20T09:00:55Z</time>
      </trkpt>
      <trkpt lat="47.73549" lon="5.99296">
        <ele>296.74</ele>
        <time>2017-09-20T09:01:00Z</time>
      </trkpt>
      <trkpt lat="47.73532" lon="5.99275">
        <ele>296.37</ele>
        <time>2017-09-20T09:01:06Z</time>
      </trkpt>
      <trkpt lat="47.73517" lon="5.99254">
        <ele>295.98</ele>
        <time>2017-09-20T09:01:09Z</time>
      </trkpt>
      <trkpt lat="47.73501" lon="5.99228">
        <ele>295.58</ele>
        <time>2017-09-20T09:01:12Z</time>
      </trkpt>
      <trkpt lat="47.73488" lon="5.99199">
        <ele>295.24</ele>
        <time>2017-09-20T09:01:15Z</time>
      </trkpt>
      <trkpt lat="47.73477" lon="5.99166">
        <ele>294.86</ele>
        <time>2017-09-20T09:01:18Z</time>
      </trkpt>
      <trkpt lat="47.73462" lon="5.99137">
        <ele>294.24</ele>
        <time>2017-09-20T09:01:21Z</time>
      </trkpt>
      <trkpt lat="47.73443" lon="5.99111">
        <ele>293.51</ele>
        <time>2017-09-20T09:01:24Z</time>
      </trkpt>
      <trkpt lat="47.73425" lon="5.99089">
        <ele>292.82</ele>
        <time>2017-09-20T09:01:27Z</time>
      </trkpt>
      <trkpt lat="47.73411" lon="5.99066">
        <ele>292.51</ele>
        <time>2017-09-20T09:01:30Z</time>
      </trkpt>
      <trkpt lat="47.73401" lon="5.9904">
        <ele>292.06</ele>
        <time>2017-09-20T09:01:33Z</time>
      </trkpt>
      <trkpt lat="47.73402" lon="5.99011">
        <ele>291.49</ele>
        <time>2017-09-20T09:01:36Z</time>
      </trkpt>
      <trkpt lat="47.73407" lon="5.98982">
        <ele>290.36</ele>
        <time>2017-09-20T09:01:40Z</time>
      </trkpt>
      <trkpt lat="47.73413" lon="5.9895">
        <ele>288.74</ele>
        <time>2017-09-20T09:01:45Z</time>
      </trkpt>
      <trkpt lat="47.73415" lon="5.98918">
        <ele>287.76</ele>
        <time>2017-09-20T09:01:50Z</time>
      </trkpt>
      <trkpt lat="47.7341" lon="5.98888">
        <ele>287.03</ele>
        <time>2017-09-20T09:01:55Z</time>
      </trkpt>
      <trkpt lat="47.73405" lon="5.98862">
        <ele>287.05</ele>
        <time>2017-09-20T09:02:00Z</time>
      </trkpt>
      <trkpt lat="47.73395" lon="5.98835">
        <ele>287.13</ele>
        <time>2017-09-20T09:02:06Z</time>
      </trkpt>
      <trkpt lat="47.73382" lon="5.9881">
        <ele>287.14</ele>
        <time>2017-09-20T09:02:12Z</time>
      </trkpt>
      <trkpt lat="47.73368" lon="5.98793">
        <ele>287.08</ele>
        <time>2017-09-20T09:02:18Z</time>
      </trkpt>
      <trkpt lat="47.73353" lon="5.98776">
        <ele>287.06</ele>
        <time>2017-09-20T09:02:24Z</time>
      </trkpt>
      <trkpt lat="47.73338" lon="5.98759">
        <ele>287.1</ele>
        <time>2017-09-20T09:02:33Z</time>
      </trkpt>
      <trkpt lat="47.73326" lon="5.98737">
        <ele>287.31</ele>
        <time>2017-09-20T09:02:43Z</time>
      </trkpt>
      <trkpt lat="47.73321" lon="5.9871">
        <ele>287.85</ele>
        <time>2017-09-20T09:02:56Z</time>
      </trkpt>
      <trkpt lat="47.7332" lon="5.98682">
        <ele>288.73</ele>
        <time>2017-09-20T09:03:08Z</time>
      </trkpt>
      <trkpt lat="47.7332" lon="5.98653">
        <ele>289.9</ele>
        <time>2017-09-20T09:03:22Z</time>
      </trkpt>
      <trkpt lat="47.73315" lon="5.98625">
        <ele>291.02</ele>
        <time>2017-09-20T09:03:36Z</time>
      </trkpt>
      <trkpt lat="47.73309" lon="5.98599">
        <ele>291.74</ele>
        <time>2017-09-20T09:03:45Z</time>
      </trkpt>
      <trkpt lat="47.73304" lon="5.98574">
        <ele>292.49</ele>
        <time>2017-09-20T09:03:56Z</time>
      </trkpt>
      <trkpt lat="47.73295" lon="5.98547">
        <ele>293.23</ele>
        <time>2017-09-20T09:04:06Z</time>
      </trkpt>
      <trkpt lat="47.7329" lon="5.98519">
        <ele>294.58</ele>
        <time>2017-09-20T09:04:17Z</time>
      </trkpt>
      <trkpt lat="47.73284" lon="5.98492">
        <ele>296.11</ele>
        <time>2017-09-20T09:04:27Z</time>
      </trkpt>
      <trkpt lat="47.73277" lon="5.98464">
        <ele>297.9</ele>
        <time>2017-09-20T09:04:38Z</time>
      </trkpt>
      <trkpt lat="47.73272" lon="5.98438">
        <ele>299.73</ele>
        <time>2017-09-20T09:04:51Z</time>
      </trkpt>
      <trkpt lat="47.73267" lon="5.98411">
        <ele>301.55</ele>
        <time>2017-09-20T09:05:03Z</time>
      </trkpt>
      <trkpt lat="47.73263" lon="5.98383">
        <ele>303.82</ele>
        <time>2017-09-20T09:05:17Z</time>
      </trkpt>
      <trkpt lat="47.73264" lon="5.98354">
        <ele>305.69</ele>
        <time>2017-09-20T09:05:33Z</time>
      </trkpt>
      <trkpt lat="47.73262" lon="5.98325">
        <ele>307.1</ele>
        <time>2017-09-20T09:05:48Z</time>
      </trkpt>
      <trkpt lat="47.73261" lon="5.98296">
        <ele>308</ele>
        <time>2017-09-20T09:06:01Z</time>
      </trkpt>
      <trkpt lat="47.73262" lon="5.98269">
        <ele>308.86</ele>
        <time>2017-09-20T09:06:13Z</time>
      </trkpt>
      <trkpt lat="47.73263" lon="5.98242">
        <ele>309.68</ele>
        <time>2017-09-20T09:06:24Z</time>
      </trkpt>
      <trkpt lat="47.73262" lon="5.98214">
        <ele>310.53</ele>
        <time>2017-09-20T09:06:34Z</time>
      </trkpt>
      <trkpt lat="47.73262" lon="5.98186">
        <ele>311.33</ele>
        <time>2017-09-20T09:06:42Z</time>
      </trkpt>
      <trkpt lat="47.73262" lon="5.98157">
        <ele>311.9</ele>
        <time>2017-09-20T09:06:49Z</time>
      </trkpt>
      <trkpt lat="47.73262" lon="5.9813">
        <ele>312.63</ele>
        <time>2017-09-20T09:07:00Z</time>
      </trkpt>
      <trkpt lat="47.73264" lon="5.98104">
        <ele>313.38</ele>
        <time>2017-09-20T09:07:13Z</time>
      </trkpt>
      <trkpt lat="47.73267" lon="5.98077">
        <ele>314.16</ele>
        <time>2017-09-20T09:07:26Z</time>
      </trkpt>
      <trkpt lat="47.73275" lon="5.98052">
        <ele>314.7</ele>
        <time>2017-09-20T09:07:36Z</time>
      </trkpt>
      <trkpt lat="47.7329" lon="5.98067">
        <ele>315.49</ele>
        <time>2017-09-20T09:08:06Z</time>
      </trkpt>
      <trkpt lat="47.73305" lon="5.98086">
        <ele>315.88</ele>
        <time>2017-09-20T09:08:18Z</time>
      </trkpt>
      <trkpt lat="47.7332" lon="5.98103">
        <ele>316.22</ele>
        <time>2017-09-20T09:08:30Z</time>
      </trkpt>
      <trkpt lat="47.73336" lon="5.98121">
        <ele>316.44</ele>
        <time>2017-09-20T09:08:38Z</time>
      </trkpt>
      <trkpt lat="47.73353" lon="5.98132">
        <ele>316.64</ele>
        <time>2017-09-20T09:08:46Z</time>
      </trkpt>
      <trkpt lat="47.73372" lon="5.98134">
        <ele>316.84</ele>
        <time>2017-09-20T09:08:55Z</time>
      </trkpt>
      <trkpt lat="47.7339" lon="5.98132">
        <ele>317.02</ele>
        <time>2017-09-20T09:09:03Z</time>
      </trkpt>
      <trkpt lat="47.73409" lon="5.98126">
        <ele>317.36</ele>
        <time>2017-09-20T09:09:18Z</time>
      </trkpt>
      <trkpt lat="47.73425" lon="5.98112">
        <ele>317.72</ele>
        <time>2017-09-20T09:09:32Z</time>
      </trkpt>
      <trkpt lat="47.7344" lon="5.98098">
        <ele>318.19</ele>
        <time>2017-09-20T09:09:57Z</time>
      </trkpt>
      <trkpt lat="47.73457" lon="5.98086">
        <ele>318.73</ele>
        <time>2017-09-20T09:10:20Z</time>
      </trkpt>
      <trkpt lat="47.73473" lon="5.9807">
        <ele>319.85</ele>
        <time>2017-09-20T09:11:21Z</time>
      </trkpt>
      <trkpt lat="47.7349" lon="5.98056">
        <ele>320.42</ele>
        <time>2017-09-20T09:11:32Z</time>
      </trkpt>
      <trkpt lat="47.73508" lon="5.98046">
        <ele>321.03</ele>
        <time>2017-09-20T09:11:44Z</time>
      </trkpt>
      <trkpt lat="47.73526" lon="5.98037">
        <ele>321.44</ele>
        <time>2017-09-20T09:11:53Z</time>
      </trkpt>
      <trkpt lat="47.73544" lon="5.98031">
        <ele>321.96</ele>
        <time>2017-09-20T09:12:06Z</time>
      </trkpt>
      <trkpt lat="47.73561" lon="5.98023">
        <ele>322.24</ele>
        <time>2017-09-20T09:12:14Z</time>
      </trkpt>
      <trkpt lat="47.7358" lon="5.98014">
        <ele>322.62</ele>
        <time>2017-09-20T09:12:26Z</time>
      </trkpt>
      <trkpt lat="47.73599" lon="5.98002">
        <ele>322.85</ele>
        <time>2017-09-20T09:12:34Z</time>
      </trkpt>
      <trkpt lat="47.73617" lon="5.97998">
        <ele>323.09</ele>
        <time>2017-09-20T09:12:43Z</time>
      </trkpt>
      <trkpt lat="47.73635" lon="5.97994">
        <ele>323.2</ele>
        <time>2017-09-20T09:12:50Z</time>
      </trkpt>
      <trkpt lat="47.73654" lon="5.97996">
        <ele>323.19</ele>
        <time>2017-09-20T09:12:58Z</time>
      </trkpt>
      <trkpt lat="47.73672" lon="5.98003">
        <ele>323.27</ele>
        <time>2017-09-20T09:13:06Z</time>
      </trkpt>
      <trkpt lat="47.7369" lon="5.98015">
        <ele>323.51</ele>
        <time>2017-09-20T09:13:15Z</time>
      </trkpt>
      <trkpt lat="47.73705" lon="5.9803">
        <ele>326.72</ele>
        <time>2017-09-20T09:16:54Z</time>
      </trkpt>
      <trkpt lat="47.73725" lon="5.98031">
        <ele>335.72</ele>
        <time>2017-09-20T09:20:08Z</time>
      </trkpt>
      <trkpt lat="47.73741" lon="5.98044">
        <ele>337.03</ele>
        <time>2017-09-20T09:20:18Z</time>
      </trkpt>
      <trkpt lat="47.73759" lon="5.98057">
        <ele>337.74</ele>
        <time>2017-09-20T09:20:24Z</time>
      </trkpt>
      <trkpt lat="47.73776" lon="5.98068">
        <ele>338.3</ele>
        <time>2017-09-20T09:20:29Z</time>
      </trkpt>
      <trkpt lat="47.73794" lon="5.98078">
        <ele>338.94</ele>
        <time>2017-09-20T09:20:35Z</time>
      </trkpt>
      <trkpt lat="47.73813" lon="5.98087">
        <ele>339.73</ele>
        <time>2017-09-20T09:20:43Z</time>
      </trkpt>
      <trkpt lat="47.73834" lon="5.98096">
        <ele>340.27</ele>
        <time>2017-09-20T09:20:49Z</time>
      </trkpt>
      <trkpt lat="47.7385" lon="5.98111">
        <ele>340.95</ele>
        <time>2017-09-20T09:20:57Z</time>
      </trkpt>
      <trkpt lat="47.73867" lon="5.98121">
        <ele>341.43</ele>
        <time>2017-09-20T09:21:03Z</time>
      </trkpt>
      <trkpt lat="47.73885" lon="5.98132">
        <ele>341.92</ele>
        <time>2017-09-20T09:21:10Z</time>
      </trkpt>
      <trkpt lat="47.73903" lon="5.98147">
        <ele>342.23</ele>
        <time>2017-09-20T09:21:15Z</time>
      </trkpt>
      <trkpt lat="47.73924" lon="5.98161">
        <ele>342.5</ele>
        <time>2017-09-20T09:21:20Z</time>
      </trkpt>
      <trkpt lat="47.73938" lon="5.98178">
        <ele>342.85</ele>
        <time>2017-09-20T09:21:27Z</time>
      </trkpt>
      <trkpt lat="47.73953" lon="5.98193">
        <ele>343.2</ele>
        <time>2017-09-20T09:21:35Z</time>
      </trkpt>
      <trkpt lat="47.73967" lon="5.98208">
        <ele>343.45</ele>
        <time>2017-09-20T09:21:41Z</time>
      </trkpt>
      <trkpt lat="47.73981" lon="5.98228">
        <ele>343.75</ele>
        <time>2017-09-20T09:21:49Z</time>
      </trkpt>
      <trkpt lat="47.73996" lon="5.98245">
        <ele>344.08</ele>
        <time>2017-09-20T09:21:59Z</time>
      </trkpt>
      <trkpt lat="47.74011" lon="5.9826">
        <ele>344.31</ele>
        <time>2017-09-20T09:22:07Z</time>
      </trkpt>
      <trkpt lat="47.74024" lon="5.98282">
        <ele>344.62</ele>
        <time>2017-09-20T09:22:17Z</time>
      </trkpt>
      <trkpt lat="47.7404" lon="5.98298">
        <ele>345.2</ele>
        <time>2017-09-20T09:22:30Z</time>
      </trkpt>
      <trkpt lat="47.74056" lon="5.98315">
        <ele>345.51</ele>
        <time>2017-09-20T09:22:37Z</time>
      </trkpt>
      <trkpt lat="47.74071" lon="5.98333">
        <ele>345.83</ele>
        <time>2017-09-20T09:22:45Z</time>
      </trkpt>
      <trkpt lat="47.74085" lon="5.98352">
        <ele>346.17</ele>
        <time>2017-09-20T09:22:53Z</time>
      </trkpt>
      <trkpt lat="47.74102" lon="5.98368">
        <ele>346.52</ele>
        <time>2017-09-20T09:23:01Z</time>
      </trkpt>
      <trkpt lat="47.7412" lon="5.98382">
        <ele>346.84</ele>
        <time>2017-09-20T09:23:08Z</time>
      </trkpt>
      <trkpt lat="47.74136" lon="5.98399">
        <ele>347.15</ele>
        <time>2017-09-20T09:23:15Z</time>
      </trkpt>
      <trkpt lat="47.74148" lon="5.9842">
        <ele>347.52</ele>
        <time>2017-09-20T09:23:24Z</time>
      </trkpt>
      <trkpt lat="47.74165" lon="5.98432">
        <ele>347.72</ele>
        <time>2017-09-20T09:23:30Z</time>
      </trkpt>
      <trkpt lat="47.74181" lon="5.98448">
        <ele>348.01</ele>
        <time>2017-09-20T09:23:40Z</time>
      </trkpt>
      <trkpt lat="47.74199" lon="5.98464">
        <ele>348.18</ele>
        <time>2017-09-20T09:23:46Z</time>
      </trkpt>
      <trkpt lat="47.74216" lon="5.9848">
        <ele>348.41</ele>
        <time>2017-09-20T09:23:53Z</time>
      </trkpt>
      <trkpt lat="47.74235" lon="5.98495">
        <ele>348.64</ele>
        <time>2017-09-20T09:24:00Z</time>
      </trkpt>
      <trkpt lat="47.74252" lon="5.98507">
        <ele>348.86</ele>
        <time>2017-09-20T09:24:06Z</time>
      </trkpt>
      <trkpt lat="47.74269" lon="5.98519">
        <ele>349.51</ele>
        <time>2017-09-20T09:24:11Z</time>
      </trkpt>
      <trkpt lat="47.74286" lon="5.98532">
        <ele>350.26</ele>
        <time>2017-09-20T09:24:15Z</time>
      </trkpt>
      <trkpt lat="47.74304" lon="5.98545">
        <ele>350.46</ele>
        <time>2017-09-20T09:24:21Z</time>
      </trkpt>
      <trkpt lat="47.74323" lon="5.98562">
        <ele>350.53</ele>
        <time>2017-09-20T09:24:28Z</time>
      </trkpt>
      <trkpt lat="47.7434" lon="5.98574">
        <ele>350.6</ele>
        <time>2017-09-20T09:24:33Z</time>
      </trkpt>
      <trkpt lat="47.74356" lon="5.98589">
        <ele>350.71</ele>
        <time>2017-09-20T09:24:39Z</time>
      </trkpt>
      <trkpt lat="47.74372" lon="5.98603">
        <ele>350.83</ele>
        <time>2017-09-20T09:24:45Z</time>
      </trkpt>
      <trkpt lat="47.74388" lon="5.98622">
        <ele>350.95</ele>
        <time>2017-09-20T09:24:51Z</time>
      </trkpt>
      <trkpt lat="47.74401" lon="5.98644">
        <ele>351.14</ele>
        <time>2017-09-20T09:24:59Z</time>
      </trkpt>
      <trkpt lat="47.74413" lon="5.98668">
        <ele>351.27</ele>
        <time>2017-09-20T09:25:05Z</time>
      </trkpt>
      <trkpt lat="47.7442" lon="5.98694">
        <ele>351.4</ele>
        <time>2017-09-20T09:25:11Z</time>
      </trkpt>
      <trkpt lat="47.7443" lon="5.98721">
        <ele>351.55</ele>
        <time>2017-09-20T09:25:18Z</time>
      </trkpt>
      <trkpt lat="47.74443" lon="5.98746">
        <ele>351.68</ele>
        <time>2017-09-20T09:25:24Z</time>
      </trkpt>
      <trkpt lat="47.74452" lon="5.98771">
        <ele>351.82</ele>
        <time>2017-09-20T09:25:30Z</time>
      </trkpt>
      <trkpt lat="47.74465" lon="5.98791">
        <ele>351.95</ele>
        <time>2017-09-20T09:25:36Z</time>
      </trkpt>
      <trkpt lat="47.74482" lon="5.98811">
        <ele>352.06</ele>
        <time>2017-09-20T09:25:41Z</time>
      </trkpt>
      <trkpt lat="47.74497" lon="5.98831">
        <ele>352.54</ele>
        <time>2017-09-20T09:25:46Z</time>
      </trkpt>
      <trkpt lat="47.74513" lon="5.9885">
        <ele>352.85</ele>
        <time>2017-09-20T09:25:51Z</time>
      </trkpt>
      <trkpt lat="47.7453" lon="5.98868">
        <ele>353.53</ele>
        <time>2017-09-20T09:25:56Z</time>
      </trkpt>
      <trkpt lat="47.74543" lon="5.98888">
        <ele>353.72</ele>
        <time>2017-09-20T09:26:01Z</time>
      </trkpt>
      <trkpt lat="47.74561" lon="5.98908">
        <ele>353.78</ele>
        <time>2017-09-20T09:26:07Z</time>
      </trkpt>
      <trkpt lat="47.74574" lon="5.98926">
        <ele>353.81</ele>
        <time>2017-09-20T09:26:11Z</time>
      </trkpt>
      <trkpt lat="47.74581" lon="5.98954">
        <ele>353.86</ele>
        <time>2017-09-20T09:26:17Z</time>
      </trkpt>
      <trkpt lat="47.74571" lon="5.98979">
        <ele>353.91</ele>
        <time>2017-09-20T09:26:22Z</time>
      </trkpt>
      <trkpt lat="47.74558" lon="5.98998">
        <ele>353.97</ele>
        <time>2017-09-20T09:26:29Z</time>
      </trkpt>
      <trkpt lat="47.74542" lon="5.99016">
        <ele>354.01</ele>
        <time>2017-09-20T09:26:34Z</time>
      </trkpt>
      <trkpt lat="47.74529" lon="5.99036">
        <ele>354.05</ele>
        <time>2017-09-20T09:26:39Z</time>
      </trkpt>
      <trkpt lat="47.74514" lon="5.99051">
        <ele>353.95</ele>
        <time>2017-09-20T09:26:45Z</time>
      </trkpt>
      <trkpt lat="47.74498" lon="5.99064">
        <ele>353.81</ele>
        <time>2017-09-20T09:26:50Z</time>
      </trkpt>
      <trkpt lat="47.74479" lon="5.99065">
        <ele>353.7</ele>
        <time>2017-09-20T09:26:54Z</time>
      </trkpt>
      <trkpt lat="47.74459" lon="5.9906">
        <ele>353.58</ele>
        <time>2017-09-20T09:27:01Z</time>
      </trkpt>
      <trkpt lat="47.74441" lon="5.99043">
        <ele>353.54</ele>
        <time>2017-09-20T09:27:07Z</time>
      </trkpt>
      <trkpt lat="47.74421" lon="5.99032">
        <ele>353.53</ele>
        <time>2017-09-20T09:27:12Z</time>
      </trkpt>
      <trkpt lat="47.74404" lon="5.9902">
        <ele>353.52</ele>
        <time>2017-09-20T09:27:17Z</time>
      </trkpt>
      <trkpt lat="47.74383" lon="5.99025">
        <ele>353.23</ele>
        <time>2017-09-20T09:27:21Z</time>
      </trkpt>
      <trkpt lat="47.7437" lon="5.99048">
        <ele>352.88</ele>
        <time>2017-09-20T09:27:24Z</time>
      </trkpt>
      <trkpt lat="47.74355" lon="5.99081">
        <ele>352.5</ele>
        <time>2017-09-20T09:27:27Z</time>
      </trkpt>
      <trkpt lat="47.74344" lon="5.99105">
        <ele>352.12</ele>
        <time>2017-09-20T09:27:29Z</time>
      </trkpt>
      <trkpt lat="47.74335" lon="5.99129">
        <ele>351.42</ele>
        <time>2017-09-20T09:27:31Z</time>
      </trkpt>
      <trkpt lat="47.74321" lon="5.99163">
        <ele>350.04</ele>
        <time>2017-09-20T09:27:34Z</time>
      </trkpt>
      <trkpt lat="47.74309" lon="5.99195">
        <ele>348.73</ele>
        <time>2017-09-20T09:27:37Z</time>
      </trkpt>
      <trkpt lat="47.74296" lon="5.99224">
        <ele>347.62</ele>
        <time>2017-09-20T09:27:40Z</time>
      </trkpt>
      <trkpt lat="47.74283" lon="5.99249">
        <ele>346.47</ele>
        <time>2017-09-20T09:27:43Z</time>
      </trkpt>
      <trkpt lat="47.74268" lon="5.99274">
        <ele>345.38</ele>
        <time>2017-09-20T09:27:46Z</time>
      </trkpt>
      <trkpt lat="47.74252" lon="5.99296">
        <ele>344.87</ele>
        <time>2017-09-20T09:27:49Z</time>
      </trkpt>
      <trkpt lat="47.74236" lon="5.99314">
        <ele>344.91</ele>
        <time>2017-09-20T09:27:54Z</time>
      </trkpt>
      <trkpt lat="47.74225" lon="5.99336">
        <ele>345.24</ele>
        <time>2017-09-20T09:27:57Z</time>
      </trkpt>
      <trkpt lat="47.74213" lon="5.99356">
        <ele>345.86</ele>
        <time>2017-09-20T09:28:00Z</time>
      </trkpt>
      <trkpt lat="47.74198" lon="5.9938">
        <ele>346.35</ele>
        <time>2017-09-20T09:28:04Z</time>
      </trkpt>
      <trkpt lat="47.74183" lon="5.99401">
        <ele>346.6</ele>
        <time>2017-09-20T09:28:07Z</time>
      </trkpt>
      <trkpt lat="47.74166" lon="5.99421">
        <ele>346.52</ele>
        <time>2017-09-20T09:28:10Z</time>
      </trkpt>
      <trkpt lat="47.74149" lon="5.99439">
        <ele>346.39</ele>
        <time>2017-09-20T09:28:13Z</time>
      </trkpt>
      <trkpt lat="47.74133" lon="5.99458">
        <ele>346.39</ele>
        <time>2017-09-20T09:28:16Z</time>
      </trkpt>
      <trkpt lat="47.74118" lon="5.99478">
        <ele>346.22</ele>
        <time>2017-09-20T09:28:19Z</time>
      </trkpt>
      <trkpt lat="47.74104" lon="5.99497">
        <ele>345.57</ele>
        <time>2017-09-20T09:28:22Z</time>
      </trkpt>
      <trkpt lat="47.74087" lon="5.99519">
        <ele>344.45</ele>
        <time>2017-09-20T09:28:26Z</time>
      </trkpt>
      <trkpt lat="47.7407" lon="5.99533">
        <ele>343.66</ele>
        <time>2017-09-20T09:28:30Z</time>
      </trkpt>
      <trkpt lat="47.74052" lon="5.9955">
        <ele>343.02</ele>
        <time>2017-09-20T09:28:35Z</time>
      </trkpt>
      <trkpt lat="47.74032" lon="5.99561">
        <ele>341.99</ele>
        <time>2017-09-20T09:28:40Z</time>
      </trkpt>
      <trkpt lat="47.74014" lon="5.99557">
        <ele>341.27</ele>
        <time>2017-09-20T09:28:45Z</time>
      </trkpt>
      <trkpt lat="47.73993" lon="5.99547">
        <ele>340.53</ele>
        <time>2017-09-20T09:28:50Z</time>
      </trkpt>
      <trkpt lat="47.73975" lon="5.99527">
        <ele>340.15</ele>
        <time>2017-09-20T09:28:55Z</time>
      </trkpt>
      <trkpt lat="47.73958" lon="5.99513">
        <ele>338.93</ele>
        <time>2017-09-20T09:29:17Z</time>
      </trkpt>
      <trkpt lat="47.73938" lon="5.99507">
        <ele>338.32</ele>
        <time>2017-09-20T09:29:24Z</time>
      </trkpt>
      <trkpt lat="47.7392" lon="5.995">
        <ele>336.5</ele>
        <time>2017-09-20T09:29:28Z</time>
      </trkpt>
      <trkpt lat="47.73902" lon="5.99495">
        <ele>335.74</ele>
        <time>2017-09-20T09:29:32Z</time>
      </trkpt>
      <trkpt lat="47.73884" lon="5.99488">
        <ele>335.28</ele>
        <time>2017-09-20T09:29:56Z</time>
      </trkpt>
      <trkpt lat="47.73866" lon="5.99496">
        <ele>334.65</ele>
        <time>2017-09-20T09:30:03Z</time>
      </trkpt>
      <trkpt lat="47.73846" lon="5.99506">
        <ele>333.24</ele>
        <time>2017-09-20T09:30:08Z</time>
      </trkpt>
      <trkpt lat="47.73827" lon="5.99508">
        <ele>332.8</ele>
        <time>2017-09-20T09:30:12Z</time>
      </trkpt>
      <trkpt lat="47.73809" lon="5.99504">
        <ele>332.58</ele>
        <time>2017-09-20T09:30:26Z</time>
      </trkpt>
      <trkpt lat="47.73788" lon="5.99502">
        <ele>332.05</ele>
        <time>2017-09-20T09:30:32Z</time>
      </trkpt>
      <trkpt lat="47.73769" lon="5.99504">
        <ele>331.7</ele>
        <time>2017-09-20T09:30:36Z</time>
      </trkpt>
      <trkpt lat="47.7375" lon="5.9951">
        <ele>331.43</ele>
        <time>2017-09-20T09:30:41Z</time>
      </trkpt>
      <trkpt lat="47.73738" lon="5.99532">
        <ele>331.37</ele>
        <time>2017-09-20T09:30:47Z</time>
      </trkpt>
      <trkpt lat="47.73725" lon="5.99556">
        <ele>331.28</ele>
        <time>2017-09-20T09:30:53Z</time>
      </trkpt>
      <trkpt lat="47.73714" lon="5.9958">
        <ele>330.83</ele>
        <time>2017-09-20T09:30:57Z</time>
      </trkpt>
      <trkpt lat="47.73703" lon="5.99604">
        <ele>330.54</ele>
        <time>2017-09-20T09:31:01Z</time>
      </trkpt>
      <trkpt lat="47.73702" lon="5.99634">
        <ele>330.46</ele>
        <time>2017-09-20T09:31:08Z</time>
      </trkpt>
      <trkpt lat="47.73709" lon="5.99659">
        <ele>330.37</ele>
        <time>2017-09-20T09:31:17Z</time>
      </trkpt>
      <trkpt lat="47.73717" lon="5.99687">
        <ele>330.13</ele>
        <time>2017-09-20T09:31:24Z</time>
      </trkpt>
      <trkpt lat="47.73723" lon="5.99714">
        <ele>328.92</ele>
        <time>2017-09-20T09:31:28Z</time>
      </trkpt>
      <trkpt lat="47.7373" lon="5.99741">
        <ele>328.34</ele>
        <time>2017-09-20T09:31:33Z</time>
      </trkpt>
      <trkpt lat="47.73738" lon="5.99768">
        <ele>327.11</ele>
        <time>2017-09-20T09:31:38Z</time>
      </trkpt>
      <trkpt lat="47.73743" lon="5.99797">
        <ele>325.89</ele>
        <time>2017-09-20T09:31:42Z</time>
      </trkpt>
      <trkpt lat="47.73747" lon="5.99824">
        <ele>324.94</ele>
        <time>2017-09-20T09:31:45Z</time>
      </trkpt>
      <trkpt lat="47.73745" lon="5.99852">
        <ele>323.96</ele>
        <time>2017-09-20T09:31:48Z</time>
      </trkpt>
      <trkpt lat="47.73739" lon="5.9988">
        <ele>323.09</ele>
        <time>2017-09-20T09:31:51Z</time>
      </trkpt>
      <trkpt lat="47.73736" lon="5.99916">
        <ele>321.65</ele>
        <time>2017-09-20T09:31:54Z</time>
      </trkpt>
      <trkpt lat="47.73731" lon="5.99954">
        <ele>319.78</ele>
        <time>2017-09-20T09:31:57Z</time>
      </trkpt>
      <trkpt lat="47.73726" lon="5.99985">
        <ele>318.05</ele>
        <time>2017-09-20T09:32:00Z</time>
      </trkpt>
      <trkpt lat="47.73724" lon="6.00012">
        <ele>316.5</ele>
        <time>2017-09-20T09:32:05Z</time>
      </trkpt>
      <trkpt lat="47.73711" lon="6.00039">
        <ele>308.04</ele>
        <time>2017-09-20T09:33:00Z</time>
      </trkpt>
      <trkpt lat="47.73701" lon="6.0007">
        <ele>304.47</ele>
        <time>2017-09-20T09:33:04Z</time>
      </trkpt>
      <trkpt lat="47.73697" lon="6.001">
        <ele>302.47</ele>
        <time>2017-09-20T09:33:07Z</time>
      </trkpt>
      <trkpt lat="47.73689" lon="6.00134">
        <ele>301.05</ele>
        <time>2017-09-20T09:33:10Z</time>
      </trkpt>
      <trkpt lat="47.73678" lon="6.00168">
        <ele>299.9</ele>
        <time>2017-09-20T09:33:13Z</time>
      </trkpt>
      <trkpt lat="47.73663" lon="6.00199">
        <ele>298.81</ele>
        <time>2017-09-20T09:33:16Z</time>
      </trkpt>
      <trkpt lat="47.73649" lon="6.00226">
        <ele>297.81</ele>
        <time>2017-09-20T09:33:19Z</time>
      </trkpt>
      <trkpt lat="47.73635" lon="6.00249">
        <ele>296.5</ele>
        <time>2017-09-20T09:33:22Z</time>
      </trkpt>
      <trkpt lat="47.73619" lon="6.00274">
        <ele>294.75</ele>
        <time>2017-09-20T09:33:25Z</time>
      </trkpt>
      <trkpt lat="47.73597" lon="6.00291">
        <ele>292.89</ele>
        <time>2017-09-20T09:33:28Z</time>
      </trkpt>
      <trkpt lat="47.73576" lon="6.00295">
        <ele>291.24</ele>
        <time>2017-09-20T09:33:31Z</time>
      </trkpt>
      <trkpt lat="47.73554" lon="6.00293">
        <ele>289.66</ele>
        <time>2017-09-20T09:33:35Z</time>
      </trkpt>
      <trkpt lat="47.73532" lon="6.00299">
        <ele>288.16</ele>
        <time>2017-09-20T09:33:40Z</time>
      </trkpt>
      <trkpt lat="47.73517" lon="6.00322">
        <ele>286.8</ele>
        <time>2017-09-20T09:33:45Z</time>
      </trkpt>
      <trkpt lat="47.7351" lon="6.00354">
        <ele>286.32</ele>
        <time>2017-09-20T09:33:49Z</time>
      </trkpt>
      <trkpt lat="47.73506" lon="6.00381">
        <ele>286.76</ele>
        <time>2017-09-20T09:33:54Z</time>
      </trkpt>
      <trkpt lat="47.73503" lon="6.0041">
        <ele>287.22</ele>
        <time>2017-09-20T09:33:59Z</time>
      </trkpt>
      <trkpt lat="47.73498" lon="6.00441">
        <ele>287.46</ele>
        <time>2017-09-20T09:34:04Z</time>
      </trkpt>
      <trkpt lat="47.73494" lon="6.00468">
        <ele>287.18</ele>
        <time>2017-09-20T09:34:09Z</time>
      </trkpt>
      <trkpt lat="47.73489" lon="6.00495">
        <ele>285.87</ele>
        <time>2017-09-20T09:34:13Z</time>
      </trkpt>
      <trkpt lat="47.73482" lon="6.0052">
        <ele>284.6</ele>
        <time>2017-09-20T09:34:17Z</time>
      </trkpt>
      <trkpt lat="47.73476" lon="6.00553">
        <ele>283.54</ele>
        <time>2017-09-20T09:34:21Z</time>
      </trkpt>
      <trkpt lat="47.73475" lon="6.00582">
        <ele>282.44</ele>
        <time>2017-09-20T09:34:24Z</time>
      </trkpt>
      <trkpt lat="47.73475" lon="6.00609">
        <ele>281.67</ele>
        <time>2017-09-20T09:34:27Z</time>
      </trkpt>
      <trkpt lat="47.73471" lon="6.00641">
        <ele>281.01</ele>
        <time>2017-09-20T09:34:31Z</time>
      </trkpt>
      <trkpt lat="47.73467" lon="6.00671">
        <ele>280.32</ele>
        <time>2017-09-20T09:34:35Z</time>
      </trkpt>
      <trkpt lat="47.73465" lon="6.00702">
        <ele>279.18</ele>
        <time>2017-09-20T09:34:39Z</time>
      </trkpt>
      <trkpt lat="47.73461" lon="6.0073">
        <ele>278.15</ele>
        <time>2017-09-20T09:34:43Z</time>
      </trkpt>
      <trkpt lat="47.73458" lon="6.00761">
        <ele>277.13</ele>
        <time>2017-09-20T09:34:48Z</time>
      </trkpt>
      <trkpt lat="47.73453" lon="6.0079">
        <ele>276.28</ele>
        <time>2017-09-20T09:34:53Z</time>
      </trkpt>
      <trkpt lat="47.73445" lon="6.00816">
        <ele>275.75</ele>
        <time>2017-09-20T09:34:57Z</time>
      </trkpt>
      <trkpt lat="47.73438" lon="6.00842">
        <ele>275.38</ele>
        <time>2017-09-20T09:35:01Z</time>
      </trkpt>
      <trkpt lat="47.7343" lon="6.0087">
        <ele>274.7</ele>
        <time>2017-09-20T09:35:06Z</time>
      </trkpt>
      <trkpt lat="47.73419" lon="6.00893">
        <ele>274.35</ele>
        <time>2017-09-20T09:35:14Z</time>
      </trkpt>
      <trkpt lat="47.73411" lon="6.00919">
        <ele>273.77</ele>
        <time>2017-09-20T09:35:22Z</time>
      </trkpt>
      <trkpt lat="47.73404" lon="6.00945">
        <ele>273.37</ele>
        <time>2017-09-20T09:35:28Z</time>
      </trkpt>
      <trkpt lat="47.73396" lon="6.0097">
        <ele>272.84</ele>
        <time>2017-09-20T09:35:33Z</time>
      </trkpt>
      <trkpt lat="47.73389" lon="6.00994">
        <ele>272.06</ele>
        <time>2017-09-20T09:35:38Z</time>
      </trkpt>
      <trkpt lat="47.73379" lon="6.0102">
        <ele>271.1</ele>
        <time>2017-09-20T09:35:42Z</time>
      </trkpt>
      <trkpt lat="47.7337" lon="6.01047">
        <ele>270.37</ele>
        <time>2017-09-20T09:35:46Z</time>
      </trkpt>
      <trkpt lat="47.73359" lon="6.01073">
        <ele>269.82</ele>
        <time>2017-09-20T09:35:50Z</time>
      </trkpt>
      <trkpt lat="47.73349" lon="6.01098">
        <ele>269.47</ele>
        <time>2017-09-20T09:35:54Z</time>
      </trkpt>
      <trkpt lat="47.73341" lon="6.01124">
        <ele>269.28</ele>
        <time>2017-09-20T09:35:59Z</time>
      </trkpt>
      <trkpt lat="47.73333" lon="6.01149">
        <ele>269.18</ele>
        <time>2017-09-20T09:36:07Z</time>
      </trkpt>
      <trkpt lat="47.73329" lon="6.01176">
        <ele>269.01</ele>
        <time>2017-09-20T09:36:15Z</time>
      </trkpt>
      <trkpt lat="47.7333" lon="6.01204">
        <ele>268.78</ele>
        <time>2017-09-20T09:36:23Z</time>
      </trkpt>
      <trkpt lat="47.73336" lon="6.01232">
        <ele>268.46</ele>
        <time>2017-09-20T09:36:32Z</time>
      </trkpt>
      <trkpt lat="47.73341" lon="6.01257">
        <ele>268.17</ele>
        <time>2017-09-20T09:36:39Z</time>
      </trkpt>
      <trkpt lat="47.73346" lon="6.01286">
        <ele>267.84</ele>
        <time>2017-09-20T09:36:46Z</time>
      </trkpt>
      <trkpt lat="47.73348" lon="6.01313">
        <ele>267.52</ele>
        <time>2017-09-20T09:36:53Z</time>
      </trkpt>
      <trkpt lat="47.73346" lon="6.0134">
        <ele>267.22</ele>
        <time>2017-09-20T09:37:00Z</time>
      </trkpt>
      <trkpt lat="47.73342" lon="6.0137">
        <ele>266.98</ele>
        <time>2017-09-20T09:37:06Z</time>
      </trkpt>
      <trkpt lat="47.73337" lon="6.01397">
        <ele>266.73</ele>
        <time>2017-09-20T09:37:13Z</time>
      </trkpt>
      <trkpt lat="47.73333" lon="6.01426">
        <ele>266.47</ele>
        <time>2017-09-20T09:37:21Z</time>
      </trkpt>
      <trkpt lat="47.73334" lon="6.01458">
        <ele>266.26</ele>
        <time>2017-09-20T09:37:28Z</time>
      </trkpt>
      <trkpt lat="47.73337" lon="6.01485">
        <ele>265.57</ele>
        <time>2017-09-20T09:37:33Z</time>
      </trkpt>
      <trkpt lat="47.7334" lon="6.01517">
        <ele>264.87</ele>
        <time>2017-09-20T09:37:38Z</time>
      </trkpt>
      <trkpt lat="47.73342" lon="6.0155">
        <ele>264.56</ele>
        <time>2017-09-20T09:37:42Z</time>
      </trkpt>
      <trkpt lat="47.7334" lon="6.01585">
        <ele>264.32</ele>
        <time>2017-09-20T09:37:46Z</time>
      </trkpt>
      <trkpt lat="47.73338" lon="6.01611">
        <ele>264.17</ele>
        <time>2017-09-20T09:37:49Z</time>
      </trkpt>
      <trkpt lat="47.73334" lon="6.01645">
        <ele>263.99</ele>
        <time>2017-09-20T09:37:53Z</time>
      </trkpt>
      <trkpt lat="47.73326" lon="6.01676">
        <ele>263.8</ele>
        <time>2017-09-20T09:37:57Z</time>
      </trkpt>
      <trkpt lat="47.73319" lon="6.01704">
        <ele>263.62</ele>
        <time>2017-09-20T09:38:01Z</time>
      </trkpt>
      <trkpt lat="47.73312" lon="6.01732">
        <ele>263.44</ele>
        <time>2017-09-20T09:38:05Z</time>
      </trkpt>
      <trkpt lat="47.73307" lon="6.01761">
        <ele>263.3</ele>
        <time>2017-09-20T09:38:09Z</time>
      </trkpt>
      <trkpt lat="47.73303" lon="6.0179">
        <ele>263.13</ele>
        <time>2017-09-20T09:38:14Z</time>
      </trkpt>
      <trkpt lat="47.733" lon="6.01816">
        <ele>263.06</ele>
        <time>2017-09-20T09:38:19Z</time>
      </trkpt>
      <trkpt lat="47.73296" lon="6.01843">
        <ele>263.03</ele>
        <time>2017-09-20T09:38:24Z</time>
      </trkpt>
      <trkpt lat="47.7329" lon="6.01873">
        <ele>262.98</ele>
        <time>2017-09-20T09:38:30Z</time>
      </trkpt>
      <trkpt lat="47.73282" lon="6.019">
        <ele>262.92</ele>
        <time>2017-09-20T09:38:36Z</time>
      </trkpt>
      <trkpt lat="47.73272" lon="6.01926">
        <ele>262.85</ele>
        <time>2017-09-20T09:38:43Z</time>
      </trkpt>
      <trkpt lat="47.73262" lon="6.01953">
        <ele>262.77</ele>
        <time>2017-09-20T09:38:50Z</time>
      </trkpt>
      <trkpt lat="47.73251" lon="6.01975">
        <ele>262.47</ele>
        <time>2017-09-20T09:38:55Z</time>
      </trkpt>
      <trkpt lat="47.73241" lon="6.02001">
        <ele>262.21</ele>
        <time>2017-09-20T09:38:59Z</time>
      </trkpt>
      <trkpt lat="47.7323" lon="6.02029">
        <ele>262.04</ele>
        <time>2017-09-20T09:39:03Z</time>
      </trkpt>
      <trkpt lat="47.73222" lon="6.02054">
        <ele>261.92</ele>
        <time>2017-09-20T09:39:07Z</time>
      </trkpt>
      <trkpt lat="47.73211" lon="6.02082">
        <ele>261.81</ele>
        <time>2017-09-20T09:39:12Z</time>
      </trkpt>
      <trkpt lat="47.73199" lon="6.02106">
        <ele>261.73</ele>
        <time>2017-09-20T09:39:17Z</time>
      </trkpt>
      <trkpt lat="47.73188" lon="6.02127">
        <ele>261.66</ele>
        <time>2017-09-20T09:39:22Z</time>
      </trkpt>
      <trkpt lat="47.73174" lon="6.02149">
        <ele>261.52</ele>
        <time>2017-09-20T09:39:27Z</time>
      </trkpt>
      <trkpt lat="47.7316" lon="6.02169">
        <ele>261.39</ele>
        <time>2017-09-20T09:39:32Z</time>
      </trkpt>
      <trkpt lat="47.73143" lon="6.02193">
        <ele>261.29</ele>
        <time>2017-09-20T09:39:37Z</time>
      </trkpt>
      <trkpt lat="47.73128" lon="6.02214">
        <ele>261.21</ele>
        <time>2017-09-20T09:39:41Z</time>
      </trkpt>
      <trkpt lat="47.73114" lon="6.02238">
        <ele>261.12</ele>
        <time>2017-09-20T09:39:46Z</time>
      </trkpt>
      <trkpt lat="47.731" lon="6.02262">
        <ele>261.02</ele>
        <time>2017-09-20T09:39:51Z</time>
      </trkpt>
      <trkpt lat="47.73084" lon="6.02285">
        <ele>260.94</ele>
        <time>2017-09-20T09:39:56Z</time>
      </trkpt>
      <trkpt lat="47.73071" lon="6.02307">
        <ele>260.85</ele>
        <time>2017-09-20T09:40:01Z</time>
      </trkpt>
      <trkpt lat="47.73057" lon="6.02331">
        <ele>260.76</ele>
        <time>2017-09-20T09:40:06Z</time>
      </trkpt>
      <trkpt lat="47.73044" lon="6.02352">
        <ele>260.67</ele>
        <time>2017-09-20T09:40:10Z</time>
      </trkpt>
      <trkpt lat="47.73031" lon="6.02374">
        <ele>260.58</ele>
        <time>2017-09-20T09:40:14Z</time>
      </trkpt>
      <trkpt lat="47.73018" lon="6.02395">
        <ele>260.51</ele>
        <time>2017-09-20T09:40:18Z</time>
      </trkpt>
      <trkpt lat="47.73005" lon="6.02417">
        <ele>260.43</ele>
        <time>2017-09-20T09:40:22Z</time>
      </trkpt>
      <trkpt lat="47.72992" lon="6.0244">
        <ele>260.29</ele>
        <time>2017-09-20T09:40:26Z</time>
      </trkpt>
      <trkpt lat="47.72979" lon="6.02463">
        <ele>260.12</ele>
        <time>2017-09-20T09:40:30Z</time>
      </trkpt>
      <trkpt lat="47.72966" lon="6.02485">
        <ele>259.95</ele>
        <time>2017-09-20T09:40:34Z</time>
      </trkpt>
      <trkpt lat="47.72953" lon="6.02509">
        <ele>259.78</ele>
        <time>2017-09-20T09:40:38Z</time>
      </trkpt>
      <trkpt lat="47.7294" lon="6.02531">
        <ele>259.62</ele>
        <time>2017-09-20T09:40:42Z</time>
      </trkpt>
      <trkpt lat="47.72928" lon="6.02555">
        <ele>259.49</ele>
        <time>2017-09-20T09:40:46Z</time>
      </trkpt>
      <trkpt lat="47.72917" lon="6.02579">
        <ele>259.36</ele>
        <time>2017-09-20T09:40:50Z</time>
      </trkpt>
      <trkpt lat="47.72906" lon="6.02604">
        <ele>259.21</ele>
        <time>2017-09-20T09:40:54Z</time>
      </trkpt>
      <trkpt lat="47.72892" lon="6.02633">
        <ele>259.08</ele>
        <time>2017-09-20T09:40:58Z</time>
      </trkpt>
      <trkpt lat="47.72882" lon="6.02655">
        <ele>259.02</ele>
        <time>2017-09-20T09:41:01Z</time>
      </trkpt>
      <trkpt lat="47.72869" lon="6.02685">
        <ele>258.86</ele>
        <time>2017-09-20T09:41:05Z</time>
      </trkpt>
      <trkpt lat="47.7286" lon="6.02708">
        <ele>258.73</ele>
        <time>2017-09-20T09:41:10Z</time>
      </trkpt>
      <trkpt lat="47.72853" lon="6.02734">
        <ele>258.64</ele>
        <time>2017-09-20T09:41:19Z</time>
      </trkpt>
      <trkpt lat="47.7285" lon="6.02765">
        <ele>258.29</ele>
        <time>2017-09-20T09:41:34Z</time>
      </trkpt>
      <trkpt lat="47.72856" lon="6.02795">
        <ele>257.71</ele>
        <time>2017-09-20T09:41:44Z</time>
      </trkpt>
      <trkpt lat="47.72862" lon="6.02826">
        <ele>255.74</ele>
        <time>2017-09-20T09:41:49Z</time>
      </trkpt>
      <trkpt lat="47.72871" lon="6.0286">
        <ele>252.74</ele>
        <time>2017-09-20T09:41:53Z</time>
      </trkpt>
      <trkpt lat="47.72882" lon="6.02885">
        <ele>251.28</ele>
        <time>2017-09-20T09:41:56Z</time>
      </trkpt>
      <trkpt lat="47.7289" lon="6.02912">
        <ele>250.07</ele>
        <time>2017-09-20T09:41:59Z</time>
      </trkpt>
      <trkpt lat="47.72895" lon="6.02945">
        <ele>249.05</ele>
        <time>2017-09-20T09:42:02Z</time>
      </trkpt>
      <trkpt lat="47.72896" lon="6.02979">
        <ele>248.12</ele>
        <time>2017-09-20T09:42:06Z</time>
      </trkpt>
      <trkpt lat="47.72894" lon="6.03015">
        <ele>247.56</ele>
        <time>2017-09-20T09:42:09Z</time>
      </trkpt>
      <trkpt lat="47.72893" lon="6.03048">
        <ele>247.43</ele>
        <time>2017-09-20T09:42:12Z</time>
      </trkpt>
      <trkpt lat="47.72889" lon="6.03078">
        <ele>247.08</ele>
        <time>2017-09-20T09:42:15Z</time>
      </trkpt>
      <trkpt lat="47.72882" lon="6.03105">
        <ele>246.66</ele>
        <time>2017-09-20T09:42:18Z</time>
      </trkpt>
      <trkpt lat="47.72876" lon="6.0313">
        <ele>246.28</ele>
        <time>2017-09-20T09:42:21Z</time>
      </trkpt>
      <trkpt lat="47.72867" lon="6.03161">
        <ele>245.84</ele>
        <time>2017-09-20T09:42:25Z</time>
      </trkpt>
      <trkpt lat="47.72859" lon="6.0319">
        <ele>244.97</ele>
        <time>2017-09-20T09:42:29Z</time>
      </trkpt>
      <trkpt lat="47.72852" lon="6.0322">
        <ele>244.27</ele>
        <time>2017-09-20T09:42:33Z</time>
      </trkpt>
      <trkpt lat="47.72844" lon="6.03251">
        <ele>243.49</ele>
        <time>2017-09-20T09:42:37Z</time>
      </trkpt>
      <trkpt lat="47.72838" lon="6.03277">
        <ele>242.85</ele>
        <time>2017-09-20T09:42:40Z</time>
      </trkpt>
      <trkpt lat="47.7283" lon="6.0331">
        <ele>242.36</ele>
        <time>2017-09-20T09:42:44Z</time>
      </trkpt>
      <trkpt lat="47.72826" lon="6.03342">
        <ele>242.14</ele>
        <time>2017-09-20T09:42:48Z</time>
      </trkpt>
      <trkpt lat="47.72823" lon="6.03373">
        <ele>242.04</ele>
        <time>2017-09-20T09:42:52Z</time>
      </trkpt>
      <trkpt lat="47.72826" lon="6.03402">
        <ele>242.18</ele>
        <time>2017-09-20T09:42:56Z</time>
      </trkpt>
      <trkpt lat="47.72831" lon="6.03433">
        <ele>242.28</ele>
        <time>2017-09-20T09:43:01Z</time>
      </trkpt>
      <trkpt lat="47.72835" lon="6.03464">
        <ele>242.62</ele>
        <time>2017-09-20T09:43:06Z</time>
      </trkpt>
      <trkpt lat="47.72838" lon="6.03493">
        <ele>242.48</ele>
        <time>2017-09-20T09:43:11Z</time>
      </trkpt>
      <trkpt lat="47.7284" lon="6.03521">
        <ele>242.45</ele>
        <time>2017-09-20T09:43:18Z</time>
      </trkpt>
      <trkpt lat="47.72838" lon="6.0355">
        <ele>242.44</ele>
        <time>2017-09-20T09:43:26Z</time>
      </trkpt>
      <trkpt lat="47.72855" lon="6.03534">
        <ele>240.24</ele>
        <time>2017-09-20T09:44:05Z</time>
      </trkpt>
      <trkpt lat="47.72868" lon="6.03492">
        <ele>240.4</ele>
        <time>2017-09-20T09:44:07Z</time>
      </trkpt>
      <trkpt lat="47.72866" lon="6.03526">
        <ele>240.68</ele>
        <time>2017-09-20T09:44:10Z</time>
      </trkpt>
      <trkpt lat="47.72856" lon="6.0355">
        <ele>241.11</ele>
        <time>2017-09-20T09:44:48Z</time>
      </trkpt>
      <trkpt lat="47.72837" lon="6.03558">
        <ele>241.87</ele>
        <time>2017-09-20T09:45:48Z</time>
      </trkpt>
      <trkpt lat="47.72823" lon="6.03578">
        <ele>242.25</ele>
        <time>2017-09-20T09:45:55Z</time>
      </trkpt>
      <trkpt lat="47.72804" lon="6.0359">
        <ele>242.89</ele>
        <time>2017-09-20T09:45:59Z</time>
      </trkpt>
      <trkpt lat="47.72788" lon="6.03604">
        <ele>243.19</ele>
        <time>2017-09-20T09:46:03Z</time>
      </trkpt>
      <trkpt lat="47.72774" lon="6.0362">
        <ele>243.24</ele>
        <time>2017-09-20T09:46:07Z</time>
      </trkpt>
      <trkpt lat="47.7276" lon="6.03638">
        <ele>243.18</ele>
        <time>2017-09-20T09:46:12Z</time>
      </trkpt>
      <trkpt lat="47.72744" lon="6.03656">
        <ele>243.06</ele>
        <time>2017-09-20T09:46:18Z</time>
      </trkpt>
      <trkpt lat="47.72732" lon="6.0368">
        <ele>242.9</ele>
        <time>2017-09-20T09:46:24Z</time>
      </trkpt>
      <trkpt lat="47.72718" lon="6.03699">
        <ele>242.73</ele>
        <time>2017-09-20T09:46:30Z</time>
      </trkpt>
      <trkpt lat="47.72704" lon="6.03723">
        <ele>242.52</ele>
        <time>2017-09-20T09:46:36Z</time>
      </trkpt>
      <trkpt lat="47.7269" lon="6.03745">
        <ele>241.97</ele>
        <time>2017-09-20T09:46:41Z</time>
      </trkpt>
      <trkpt lat="47.72676" lon="6.0377">
        <ele>240.69</ele>
        <time>2017-09-20T09:46:46Z</time>
      </trkpt>
      <trkpt lat="47.72664" lon="6.03796">
        <ele>240.01</ele>
        <time>2017-09-20T09:46:51Z</time>
      </trkpt>
      <trkpt lat="47.72656" lon="6.03825">
        <ele>239.54</ele>
        <time>2017-09-20T09:46:55Z</time>
      </trkpt>
      <trkpt lat="47.7265" lon="6.03859">
        <ele>239.03</ele>
        <time>2017-09-20T09:46:59Z</time>
      </trkpt>
      <trkpt lat="47.72646" lon="6.03885">
        <ele>238.71</ele>
        <time>2017-09-20T09:47:02Z</time>
      </trkpt>
      <trkpt lat="47.72645" lon="6.0392">
        <ele>238.28</ele>
        <time>2017-09-20T09:47:06Z</time>
      </trkpt>
      <trkpt lat="47.72642" lon="6.03947">
        <ele>237.92</ele>
        <time>2017-09-20T09:47:09Z</time>
      </trkpt>
      <trkpt lat="47.7264" lon="6.03974">
        <ele>237.51</ele>
        <time>2017-09-20T09:47:12Z</time>
      </trkpt>
      <trkpt lat="47.72643" lon="6.04003">
        <ele>237.06</ele>
        <time>2017-09-20T09:47:15Z</time>
      </trkpt>
      <trkpt lat="47.72647" lon="6.04035">
        <ele>236.33</ele>
        <time>2017-09-20T09:47:19Z</time>
      </trkpt>
      <trkpt lat="47.72646" lon="6.04066">
        <ele>236.26</ele>
        <time>2017-09-20T09:47:25Z</time>
      </trkpt>
      <trkpt lat="47.72652" lon="6.04092">
        <ele>236.06</ele>
        <time>2017-09-20T09:47:29Z</time>
      </trkpt>
      <trkpt lat="47.72659" lon="6.04125">
        <ele>235.54</ele>
        <time>2017-09-20T09:47:33Z</time>
      </trkpt>
      <trkpt lat="47.72663" lon="6.04152">
        <ele>235.03</ele>
        <time>2017-09-20T09:47:36Z</time>
      </trkpt>
      <trkpt lat="47.72669" lon="6.04185">
        <ele>234.51</ele>
        <time>2017-09-20T09:47:40Z</time>
      </trkpt>
      <trkpt lat="47.7268" lon="6.04215">
        <ele>234.1</ele>
        <time>2017-09-20T09:47:44Z</time>
      </trkpt>
      <trkpt lat="47.72694" lon="6.04241">
        <ele>234.01</ele>
        <time>2017-09-20T09:47:48Z</time>
      </trkpt>
      <trkpt lat="47.72706" lon="6.04261">
        <ele>233.86</ele>
        <time>2017-09-20T09:47:52Z</time>
      </trkpt>
      <trkpt lat="47.7272" lon="6.04285">
        <ele>233.64</ele>
        <time>2017-09-20T09:47:58Z</time>
      </trkpt>
      <trkpt lat="47.72735" lon="6.04306">
        <ele>233.46</ele>
        <time>2017-09-20T09:48:04Z</time>
      </trkpt>
      <trkpt lat="47.72747" lon="6.04331">
        <ele>233.11</ele>
        <time>2017-09-20T09:48:12Z</time>
      </trkpt>
      <trkpt lat="47.72758" lon="6.04357">
        <ele>231.67</ele>
        <time>2017-09-20T09:48:17Z</time>
      </trkpt>
      <trkpt lat="47.72766" lon="6.04382">
        <ele>231.27</ele>
        <time>2017-09-20T09:48:22Z</time>
      </trkpt>
      <trkpt lat="47.72774" lon="6.04411">
        <ele>231.05</ele>
        <time>2017-09-20T09:48:30Z</time>
      </trkpt>
      <trkpt lat="47.7278" lon="6.04439">
        <ele>229.69</ele>
        <time>2017-09-20T09:48:35Z</time>
      </trkpt>
      <trkpt lat="47.72789" lon="6.04466">
        <ele>228.71</ele>
        <time>2017-09-20T09:48:40Z</time>
      </trkpt>
      <trkpt lat="47.72799" lon="6.04491">
        <ele>227.51</ele>
        <time>2017-09-20T09:48:44Z</time>
      </trkpt>
      <trkpt lat="47.72808" lon="6.04518">
        <ele>226.94</ele>
        <time>2017-09-20T09:48:49Z</time>
      </trkpt>
      <trkpt lat="47.7282" lon="6.0454">
        <ele>226.52</ele>
        <time>2017-09-20T09:48:54Z</time>
      </trkpt>
      <trkpt lat="47.72833" lon="6.04564">
        <ele>226.38</ele>
        <time>2017-09-20T09:49:01Z</time>
      </trkpt>
      <trkpt lat="47.72844" lon="6.04586">
        <ele>225.93</ele>
        <time>2017-09-20T09:49:07Z</time>
      </trkpt>
      <trkpt lat="47.7285" lon="6.04614">
        <ele>224.49</ele>
        <time>2017-09-20T09:49:11Z</time>
      </trkpt>
      <trkpt lat="47.7286" lon="6.04641">
        <ele>223.45</ele>
        <time>2017-09-20T09:49:14Z</time>
      </trkpt>
      <trkpt lat="47.72865" lon="6.04673">
        <ele>222.46</ele>
        <time>2017-09-20T09:49:18Z</time>
      </trkpt>
      <trkpt lat="47.72873" lon="6.04698">
        <ele>221.88</ele>
        <time>2017-09-20T09:49:21Z</time>
      </trkpt>
      <trkpt lat="47.72887" lon="6.04716">
        <ele>221.38</ele>
        <time>2017-09-20T09:49:24Z</time>
      </trkpt>
      <trkpt lat="47.72907" lon="6.04724">
        <ele>220.88</ele>
        <time>2017-09-20T09:49:28Z</time>
      </trkpt>
      <trkpt lat="47.72925" lon="6.04718">
        <ele>220.62</ele>
        <time>2017-09-20T09:49:32Z</time>
      </trkpt>
      <trkpt lat="47.72942" lon="6.0473">
        <ele>219.11</ele>
        <time>2017-09-20T09:50:11Z</time>
      </trkpt>
      <trkpt lat="47.72953" lon="6.04751">
        <ele>219.08</ele>
        <time>2017-09-20T09:50:26Z</time>
      </trkpt>
      <trkpt lat="47.72963" lon="6.04779">
        <ele>219.76</ele>
        <time>2017-09-20T09:51:15Z</time>
      </trkpt>
      <trkpt lat="47.72979" lon="6.04795">
        <ele>219.98</ele>
        <time>2017-09-20T09:51:25Z</time>
      </trkpt>
      <trkpt lat="47.72996" lon="6.04805">
        <ele>220.07</ele>
        <time>2017-09-20T09:51:30Z</time>
      </trkpt>
      <trkpt lat="47.73015" lon="6.04815">
        <ele>220.17</ele>
        <time>2017-09-20T09:51:36Z</time>
      </trkpt>
      <trkpt lat="47.73032" lon="6.04826">
        <ele>220.26</ele>
        <time>2017-09-20T09:51:42Z</time>
      </trkpt>
      <trkpt lat="47.7305" lon="6.04842">
        <ele>220.35</ele>
        <time>2017-09-20T09:51:48Z</time>
      </trkpt>
      <trkpt lat="47.73064" lon="6.04858">
        <ele>220.39</ele>
        <time>2017-09-20T09:51:52Z</time>
      </trkpt>
      <trkpt lat="47.73078" lon="6.04879">
        <ele>220.67</ele>
        <time>2017-09-20T09:51:56Z</time>
      </trkpt>
      <trkpt lat="47.7309" lon="6.04903">
        <ele>220.73</ele>
        <time>2017-09-20T09:52:01Z</time>
      </trkpt>
      <trkpt lat="47.73104" lon="6.04926">
        <ele>220.77</ele>
        <time>2017-09-20T09:52:06Z</time>
      </trkpt>
      <trkpt lat="47.73116" lon="6.04945">
        <ele>220.76</ele>
        <time>2017-09-20T09:52:11Z</time>
      </trkpt>
      <trkpt lat="47.73128" lon="6.04969">
        <ele>220.76</ele>
        <time>2017-09-20T09:52:19Z</time>
      </trkpt>
      <trkpt lat="47.73132" lon="6.04996">
        <ele>220.75</ele>
        <time>2017-09-20T09:52:27Z</time>
      </trkpt>
      <trkpt lat="47.73129" lon="6.05027">
        <ele>220.74</ele>
        <time>2017-09-20T09:52:32Z</time>
      </trkpt>
      <trkpt lat="47.73126" lon="6.05055">
        <ele>220.72</ele>
        <time>2017-09-20T09:52:36Z</time>
      </trkpt>
      <trkpt lat="47.73123" lon="6.05082">
        <ele>220.71</ele>
        <time>2017-09-20T09:52:40Z</time>
      </trkpt>
      <trkpt lat="47.73121" lon="6.05114">
        <ele>220.62</ele>
        <time>2017-09-20T09:52:44Z</time>
      </trkpt>
      <trkpt lat="47.73115" lon="6.05146">
        <ele>220.52</ele>
        <time>2017-09-20T09:52:49Z</time>
      </trkpt>
      <trkpt lat="47.73109" lon="6.05173">
        <ele>220.43</ele>
        <time>2017-09-20T09:52:53Z</time>
      </trkpt>
      <trkpt lat="47.73104" lon="6.05199">
        <ele>220.32</ele>
        <time>2017-09-20T09:52:57Z</time>
      </trkpt>
      <trkpt lat="47.73098" lon="6.05231">
        <ele>220.18</ele>
        <time>2017-09-20T09:53:02Z</time>
      </trkpt>
      <trkpt lat="47.73091" lon="6.05257">
        <ele>220.11</ele>
        <time>2017-09-20T09:53:07Z</time>
      </trkpt>
      <trkpt lat="47.73085" lon="6.05286">
        <ele>220.04</ele>
        <time>2017-09-20T09:53:11Z</time>
      </trkpt>
      <trkpt lat="47.73079" lon="6.05316">
        <ele>219.98</ele>
        <time>2017-09-20T09:53:16Z</time>
      </trkpt>
      <trkpt lat="47.73072" lon="6.05344">
        <ele>219.89</ele>
        <time>2017-09-20T09:53:21Z</time>
      </trkpt>
      <trkpt lat="47.73065" lon="6.05376">
        <ele>219.76</ele>
        <time>2017-09-20T09:53:26Z</time>
      </trkpt>
      <trkpt lat="47.73058" lon="6.05406">
        <ele>219.61</ele>
        <time>2017-09-20T09:53:31Z</time>
      </trkpt>
      <trkpt lat="47.73051" lon="6.05432">
        <ele>219.42</ele>
        <time>2017-09-20T09:53:36Z</time>
      </trkpt>
      <trkpt lat="47.73039" lon="6.05457">
        <ele>219.18</ele>
        <time>2017-09-20T09:53:41Z</time>
      </trkpt>
      <trkpt lat="47.73022" lon="6.05477">
        <ele>219.14</ele>
        <time>2017-09-20T09:53:47Z</time>
      </trkpt>
      <trkpt lat="47.73005" lon="6.05491">
        <ele>219.12</ele>
        <time>2017-09-20T09:53:53Z</time>
      </trkpt>
      <trkpt lat="47.72987" lon="6.0548">
        <ele>219.11</ele>
        <time>2017-09-20T09:53:59Z</time>
      </trkpt>
      <trkpt lat="47.72969" lon="6.05462">
        <ele>218.89</ele>
        <time>2017-09-20T09:54:04Z</time>
      </trkpt>
      <trkpt lat="47.72953" lon="6.05447">
        <ele>218.73</ele>
        <time>2017-09-20T09:54:08Z</time>
      </trkpt>
      <trkpt lat="47.72932" lon="6.05433">
        <ele>218.53</ele>
        <time>2017-09-20T09:54:13Z</time>
      </trkpt>
      <trkpt lat="47.72914" lon="6.05421">
        <ele>218.34</ele>
        <time>2017-09-20T09:54:17Z</time>
      </trkpt>
      <trkpt lat="47.72896" lon="6.05409">
        <ele>218.16</ele>
        <time>2017-09-20T09:54:21Z</time>
      </trkpt>
      <trkpt lat="47.72876" lon="6.05395">
        <ele>217.97</ele>
        <time>2017-09-20T09:54:26Z</time>
      </trkpt>
      <trkpt lat="47.72859" lon="6.05383">
        <ele>217.85</ele>
        <time>2017-09-20T09:54:30Z</time>
      </trkpt>
      <trkpt lat="47.72843" lon="6.0537">
        <ele>217.71</ele>
        <time>2017-09-20T09:54:34Z</time>
      </trkpt>
      <trkpt lat="47.72821" lon="6.05357">
        <ele>217.57</ele>
        <time>2017-09-20T09:54:38Z</time>
      </trkpt>
      <trkpt lat="47.72804" lon="6.05351">
        <ele>217.47</ele>
        <time>2017-09-20T09:54:41Z</time>
      </trkpt>
      <trkpt lat="47.72784" lon="6.05344">
        <ele>217.35</ele>
        <time>2017-09-20T09:54:45Z</time>
      </trkpt>
      <trkpt lat="47.72766" lon="6.05338">
        <ele>217.28</ele>
        <time>2017-09-20T09:55:08Z</time>
      </trkpt>
      <trkpt lat="47.72746" lon="6.0534">
        <ele>217.3</ele>
        <time>2017-09-20T09:55:17Z</time>
      </trkpt>
      <trkpt lat="47.72727" lon="6.05338">
        <ele>217.32</ele>
        <time>2017-09-20T09:55:23Z</time>
      </trkpt>
      <trkpt lat="47.72707" lon="6.05339">
        <ele>217.35</ele>
        <time>2017-09-20T09:55:30Z</time>
      </trkpt>
      <trkpt lat="47.72688" lon="6.05335">
        <ele>217.36</ele>
        <time>2017-09-20T09:55:37Z</time>
      </trkpt>
      <trkpt lat="47.72668" lon="6.05341">
        <ele>217.36</ele>
        <time>2017-09-20T09:55:44Z</time>
      </trkpt>
      <trkpt lat="47.7265" lon="6.05353">
        <ele>217.44</ele>
        <time>2017-09-20T09:55:52Z</time>
      </trkpt>
      <trkpt lat="47.72633" lon="6.05365">
        <ele>217.58</ele>
        <time>2017-09-20T09:56:00Z</time>
      </trkpt>
      <trkpt lat="47.72621" lon="6.05387">
        <ele>217.77</ele>
        <time>2017-09-20T09:56:08Z</time>
      </trkpt>
      <trkpt lat="47.72614" lon="6.05411">
        <ele>217.95</ele>
        <time>2017-09-20T09:56:15Z</time>
      </trkpt>
      <trkpt lat="47.72607" lon="6.0544">
        <ele>218.18</ele>
        <time>2017-09-20T09:56:23Z</time>
      </trkpt>
      <trkpt lat="47.72597" lon="6.05465">
        <ele>218.43</ele>
        <time>2017-09-20T09:56:30Z</time>
      </trkpt>
      <trkpt lat="47.72578" lon="6.05481">
        <ele>218.66</ele>
        <time>2017-09-20T09:56:36Z</time>
      </trkpt>
      <trkpt lat="47.72558" lon="6.05479">
        <ele>218.71</ele>
        <time>2017-09-20T09:56:42Z</time>
      </trkpt>
      <trkpt lat="47.72543" lon="6.05464">
        <ele>218.66</ele>
        <time>2017-09-20T09:56:48Z</time>
      </trkpt>
      <trkpt lat="47.72533" lon="6.05441">
        <ele>218.73</ele>
        <time>2017-09-20T09:56:54Z</time>
      </trkpt>
      <trkpt lat="47.72537" lon="6.05414">
        <ele>218.97</ele>
        <time>2017-09-20T09:57:00Z</time>
      </trkpt>
      <trkpt lat="47.72539" lon="6.05387">
        <ele>219.33</ele>
        <time>2017-09-20T09:57:06Z</time>
      </trkpt>
      <trkpt lat="47.72544" lon="6.05361">
        <ele>219.87</ele>
        <time>2017-09-20T09:57:13Z</time>
      </trkpt>
      <trkpt lat="47.72554" lon="6.05338">
        <ele>220.42</ele>
        <time>2017-09-20T09:57:20Z</time>
      </trkpt>
      <trkpt lat="47.72564" lon="6.05313">
        <ele>220.95</ele>
        <time>2017-09-20T09:57:27Z</time>
      </trkpt>
      <trkpt lat="47.72562" lon="6.05286">
        <ele>221.72</ele>
        <time>2017-09-20T09:57:37Z</time>
      </trkpt>
      <trkpt lat="47.72557" lon="6.0526">
        <ele>222.4</ele>
        <time>2017-09-20T09:57:46Z</time>
      </trkpt>
      <trkpt lat="47.72551" lon="6.0523">
        <ele>223.02</ele>
        <time>2017-09-20T09:57:54Z</time>
      </trkpt>
      <trkpt lat="47.72543" lon="6.05205">
        <ele>223.58</ele>
        <time>2017-09-20T09:58:01Z</time>
      </trkpt>
      <trkpt lat="47.72529" lon="6.05183">
        <ele>224.12</ele>
        <time>2017-09-20T09:58:09Z</time>
      </trkpt>
      <trkpt lat="47.72514" lon="6.05162">
        <ele>224.47</ele>
        <time>2017-09-20T09:58:16Z</time>
      </trkpt>
      <trkpt lat="47.72498" lon="6.05148">
        <ele>224.73</ele>
        <time>2017-09-20T09:58:22Z</time>
      </trkpt>
      <trkpt lat="47.72483" lon="6.05129">
        <ele>225.01</ele>
        <time>2017-09-20T09:58:29Z</time>
      </trkpt>
      <trkpt lat="47.72469" lon="6.05111">
        <ele>225.32</ele>
        <time>2017-09-20T09:58:35Z</time>
      </trkpt>
      <trkpt lat="47.72456" lon="6.05091">
        <ele>225.73</ele>
        <time>2017-09-20T09:58:43Z</time>
      </trkpt>
      <trkpt lat="47.72441" lon="6.05074">
        <ele>226.17</ele>
        <time>2017-09-20T09:58:52Z</time>
      </trkpt>
      <trkpt lat="47.72429" lon="6.05052">
        <ele>226.62</ele>
        <time>2017-09-20T09:59:02Z</time>
      </trkpt>
      <trkpt lat="47.72415" lon="6.05032">
        <ele>227.73</ele>
        <time>2017-09-20T09:59:07Z</time>
      </trkpt>
      <trkpt lat="47.72398" lon="6.0501">
        <ele>228.16</ele>
        <time>2017-09-20T09:59:11Z</time>
      </trkpt>
      <trkpt lat="47.72383" lon="6.04988">
        <ele>228.3</ele>
        <time>2017-09-20T09:59:15Z</time>
      </trkpt>
      <trkpt lat="47.7237" lon="6.04967">
        <ele>228.39</ele>
        <time>2017-09-20T09:59:18Z</time>
      </trkpt>
      <trkpt lat="47.72357" lon="6.04949">
        <ele>228.5</ele>
        <time>2017-09-20T09:59:22Z</time>
      </trkpt>
      <trkpt lat="47.72344" lon="6.04927">
        <ele>228.57</ele>
        <time>2017-09-20T09:59:26Z</time>
      </trkpt>
      <trkpt lat="47.72329" lon="6.04903">
        <ele>228.6</ele>
        <time>2017-09-20T09:59:31Z</time>
      </trkpt>
      <trkpt lat="47.72315" lon="6.04884">
        <ele>228.67</ele>
        <time>2017-09-20T09:59:36Z</time>
      </trkpt>
      <trkpt lat="47.72302" lon="6.04864">
        <ele>228.69</ele>
        <time>2017-09-20T09:59:41Z</time>
      </trkpt>
      <trkpt lat="47.72286" lon="6.04848">
        <ele>228.94</ele>
        <time>2017-09-20T09:59:45Z</time>
      </trkpt>
      <trkpt lat="47.72267" lon="6.04832">
        <ele>229.6</ele>
        <time>2017-09-20T09:59:49Z</time>
      </trkpt>
      <trkpt lat="47.72249" lon="6.04824">
        <ele>229.91</ele>
        <time>2017-09-20T09:59:54Z</time>
      </trkpt>
      <trkpt lat="47.72231" lon="6.04817">
        <ele>230.55</ele>
        <time>2017-09-20T09:59:59Z</time>
      </trkpt>
      <trkpt lat="47.72211" lon="6.04815">
        <ele>231.21</ele>
        <time>2017-09-20T10:00:04Z</time>
      </trkpt>
      <trkpt lat="47.72191" lon="6.04814">
        <ele>231.73</ele>
        <time>2017-09-20T10:00:09Z</time>
      </trkpt>
      <trkpt lat="47.72171" lon="6.04813">
        <ele>232.13</ele>
        <time>2017-09-20T10:00:14Z</time>
      </trkpt>
      <trkpt lat="47.72152" lon="6.04809">
        <ele>232.49</ele>
        <time>2017-09-20T10:00:19Z</time>
      </trkpt>
      <trkpt lat="47.72134" lon="6.04801">
        <ele>232.68</ele>
        <time>2017-09-20T10:00:24Z</time>
      </trkpt>
      <trkpt lat="47.72117" lon="6.04789">
        <ele>232.84</ele>
        <time>2017-09-20T10:00:29Z</time>
      </trkpt>
      <trkpt lat="47.72101" lon="6.04771">
        <ele>232.93</ele>
        <time>2017-09-20T10:00:35Z</time>
      </trkpt>
      <trkpt lat="47.72089" lon="6.04745">
        <ele>233.26</ele>
        <time>2017-09-20T10:00:41Z</time>
      </trkpt>
      <trkpt lat="47.72081" lon="6.04719">
        <ele>234.06</ele>
        <time>2017-09-20T10:00:46Z</time>
      </trkpt>
      <trkpt lat="47.72073" lon="6.04689">
        <ele>234.71</ele>
        <time>2017-09-20T10:00:51Z</time>
      </trkpt>
      <trkpt lat="47.72067" lon="6.0466">
        <ele>235.05</ele>
        <time>2017-09-20T10:00:56Z</time>
      </trkpt>
      <trkpt lat="47.72059" lon="6.04629">
        <ele>235.25</ele>
        <time>2017-09-20T10:01:01Z</time>
      </trkpt>
      <trkpt lat="47.7205" lon="6.04598">
        <ele>235.47</ele>
        <time>2017-09-20T10:01:06Z</time>
      </trkpt>
      <trkpt lat="47.72041" lon="6.04568">
        <ele>235.53</ele>
        <time>2017-09-20T10:01:10Z</time>
      </trkpt>
      <trkpt lat="47.72031" lon="6.04545">
        <ele>235.57</ele>
        <time>2017-09-20T10:01:13Z</time>
      </trkpt>
      <trkpt lat="47.72019" lon="6.04523">
        <ele>235.68</ele>
        <time>2017-09-20T10:01:16Z</time>
      </trkpt>
      <trkpt lat="47.72005" lon="6.04501">
        <ele>235.8</ele>
        <time>2017-09-20T10:01:19Z</time>
      </trkpt>
      <trkpt lat="47.71991" lon="6.04479">
        <ele>235.91</ele>
        <time>2017-09-20T10:01:22Z</time>
      </trkpt>
      <trkpt lat="47.71976" lon="6.0446">
        <ele>236.06</ele>
        <time>2017-09-20T10:01:25Z</time>
      </trkpt>
      <trkpt lat="47.7196" lon="6.04442">
        <ele>236.25</ele>
        <time>2017-09-20T10:01:28Z</time>
      </trkpt>
      <trkpt lat="47.71942" lon="6.04419">
        <ele>236.32</ele>
        <time>2017-09-20T10:01:32Z</time>
      </trkpt>
      <trkpt lat="47.71928" lon="6.04393">
        <ele>236.55</ele>
        <time>2017-09-20T10:01:36Z</time>
      </trkpt>
      <trkpt lat="47.71915" lon="6.04369">
        <ele>236.87</ele>
        <time>2017-09-20T10:01:40Z</time>
      </trkpt>
      <trkpt lat="47.71902" lon="6.04348">
        <ele>237.27</ele>
        <time>2017-09-20T10:01:44Z</time>
      </trkpt>
      <trkpt lat="47.71889" lon="6.04324">
        <ele>237.76</ele>
        <time>2017-09-20T10:01:48Z</time>
      </trkpt>
      <trkpt lat="47.71876" lon="6.043">
        <ele>238.19</ele>
        <time>2017-09-20T10:01:52Z</time>
      </trkpt>
      <trkpt lat="47.71862" lon="6.04277">
        <ele>238.59</ele>
        <time>2017-09-20T10:01:56Z</time>
      </trkpt>
      <trkpt lat="47.71849" lon="6.04256">
        <ele>238.77</ele>
        <time>2017-09-20T10:02:00Z</time>
      </trkpt>
      <trkpt lat="47.71835" lon="6.04231">
        <ele>238.9</ele>
        <time>2017-09-20T10:02:04Z</time>
      </trkpt>
      <trkpt lat="47.71821" lon="6.04208">
        <ele>239.18</ele>
        <time>2017-09-20T10:02:08Z</time>
      </trkpt>
      <trkpt lat="47.71804" lon="6.04188">
        <ele>239.22</ele>
        <time>2017-09-20T10:02:12Z</time>
      </trkpt>
      <trkpt lat="47.71786" lon="6.0417">
        <ele>239.13</ele>
        <time>2017-09-20T10:02:16Z</time>
      </trkpt>
      <trkpt lat="47.71765" lon="6.04158">
        <ele>239.03</ele>
        <time>2017-09-20T10:02:20Z</time>
      </trkpt>
      <trkpt lat="47.71744" lon="6.04152">
        <ele>239.1</ele>
        <time>2017-09-20T10:02:24Z</time>
      </trkpt>
      <trkpt lat="47.71723" lon="6.04151">
        <ele>239.24</ele>
        <time>2017-09-20T10:02:28Z</time>
      </trkpt>
      <trkpt lat="47.71704" lon="6.04154">
        <ele>239.2</ele>
        <time>2017-09-20T10:02:32Z</time>
      </trkpt>
      <trkpt lat="47.71685" lon="6.0416">
        <ele>239.01</ele>
        <time>2017-09-20T10:02:36Z</time>
      </trkpt>
      <trkpt lat="47.71665" lon="6.04167">
        <ele>238.83</ele>
        <time>2017-09-20T10:02:40Z</time>
      </trkpt>
      <trkpt lat="47.71645" lon="6.04172">
        <ele>238.82</ele>
        <time>2017-09-20T10:02:44Z</time>
      </trkpt>
      <trkpt lat="47.71626" lon="6.04177">
        <ele>238.8</ele>
        <time>2017-09-20T10:02:48Z</time>
      </trkpt>
      <trkpt lat="47.71607" lon="6.04183">
        <ele>238.79</ele>
        <time>2017-09-20T10:02:52Z</time>
      </trkpt>
      <trkpt lat="47.71587" lon="6.0419">
        <ele>238.69</ele>
        <time>2017-09-20T10:02:56Z</time>
      </trkpt>
      <trkpt lat="47.71567" lon="6.04196">
        <ele>238.51</ele>
        <time>2017-09-20T10:03:00Z</time>
      </trkpt>
      <trkpt lat="47.71546" lon="6.042">
        <ele>238.32</ele>
        <time>2017-09-20T10:03:04Z</time>
      </trkpt>
      <trkpt lat="47.71525" lon="6.04203">
        <ele>238.27</ele>
        <time>2017-09-20T10:03:08Z</time>
      </trkpt>
      <trkpt lat="47.71504" lon="6.0421">
        <ele>238.28</ele>
        <time>2017-09-20T10:03:12Z</time>
      </trkpt>
      <trkpt lat="47.71483" lon="6.04215">
        <ele>238.19</ele>
        <time>2017-09-20T10:03:16Z</time>
      </trkpt>
      <trkpt lat="47.71461" lon="6.04218">
        <ele>237.95</ele>
        <time>2017-09-20T10:03:20Z</time>
      </trkpt>
      <trkpt lat="47.71438" lon="6.04217">
        <ele>237.63</ele>
        <time>2017-09-20T10:03:24Z</time>
      </trkpt>
      <trkpt lat="47.71421" lon="6.0421">
        <ele>237.38</ele>
        <time>2017-09-20T10:03:27Z</time>
      </trkpt>
      <trkpt lat="47.71404" lon="6.04198">
        <ele>237.18</ele>
        <time>2017-09-20T10:03:30Z</time>
      </trkpt>
      <trkpt lat="47.71385" lon="6.04178">
        <ele>236.86</ele>
        <time>2017-09-20T10:03:34Z</time>
      </trkpt>
      <trkpt lat="47.71369" lon="6.04152">
        <ele>236.5</ele>
        <time>2017-09-20T10:03:38Z</time>
      </trkpt>
      <trkpt lat="47.71358" lon="6.04122">
        <ele>236.26</ele>
        <time>2017-09-20T10:03:42Z</time>
      </trkpt>
      <trkpt lat="47.7135" lon="6.04098">
        <ele>236.06</ele>
        <time>2017-09-20T10:03:45Z</time>
      </trkpt>
      <trkpt lat="47.71342" lon="6.04071">
        <ele>235.78</ele>
        <time>2017-09-20T10:03:48Z</time>
      </trkpt>
      <trkpt lat="47.71333" lon="6.04041">
        <ele>235.34</ele>
        <time>2017-09-20T10:03:51Z</time>
      </trkpt>
      <trkpt lat="47.71324" lon="6.04008">
        <ele>234.67</ele>
        <time>2017-09-20T10:03:54Z</time>
      </trkpt>
      <trkpt lat="47.71316" lon="6.03973">
        <ele>233.55</ele>
        <time>2017-09-20T10:03:57Z</time>
      </trkpt>
      <trkpt lat="47.71308" lon="6.03937">
        <ele>232.67</ele>
        <time>2017-09-20T10:04:00Z</time>
      </trkpt>
      <trkpt lat="47.71298" lon="6.03903">
        <ele>231.99</ele>
        <time>2017-09-20T10:04:03Z</time>
      </trkpt>
      <trkpt lat="47.71285" lon="6.03871">
        <ele>231.64</ele>
        <time>2017-09-20T10:04:06Z</time>
      </trkpt>
      <trkpt lat="47.71272" lon="6.03852">
        <ele>231.62</ele>
        <time>2017-09-20T10:04:08Z</time>
      </trkpt>
      <trkpt lat="47.71257" lon="6.03837">
        <ele>231.41</ele>
        <time>2017-09-20T10:04:10Z</time>
      </trkpt>
      <trkpt lat="47.7124" lon="6.03826">
        <ele>231.04</ele>
        <time>2017-09-20T10:04:12Z</time>
      </trkpt>
      <trkpt lat="47.71223" lon="6.0382">
        <ele>230.79</ele>
        <time>2017-09-20T10:04:14Z</time>
      </trkpt>
      <trkpt lat="47.71197" lon="6.03822">
        <ele>230.12</ele>
        <time>2017-09-20T10:04:17Z</time>
      </trkpt>
      <trkpt lat="47.71172" lon="6.03835">
        <ele>229.34</ele>
        <time>2017-09-20T10:04:20Z</time>
      </trkpt>
      <trkpt lat="47.7115" lon="6.03851">
        <ele>228.4</ele>
        <time>2017-09-20T10:04:23Z</time>
      </trkpt>
      <trkpt lat="47.71129" lon="6.03865">
        <ele>227.67</ele>
        <time>2017-09-20T10:04:26Z</time>
      </trkpt>
      <trkpt lat="47.71111" lon="6.03878">
        <ele>226.83</ele>
        <time>2017-09-20T10:04:29Z</time>
      </trkpt>
      <trkpt lat="47.71093" lon="6.03888">
        <ele>225.9</ele>
        <time>2017-09-20T10:04:32Z</time>
      </trkpt>
      <trkpt lat="47.71076" lon="6.03896">
        <ele>224.93</ele>
        <time>2017-09-20T10:04:35Z</time>
      </trkpt>
      <trkpt lat="47.71058" lon="6.03904">
        <ele>224.03</ele>
        <time>2017-09-20T10:04:38Z</time>
      </trkpt>
      <trkpt lat="47.7104" lon="6.03911">
        <ele>223.36</ele>
        <time>2017-09-20T10:04:41Z</time>
      </trkpt>
      <trkpt lat="47.71022" lon="6.03915">
        <ele>222.63</ele>
        <time>2017-09-20T10:04:44Z</time>
      </trkpt>
      <trkpt lat="47.71004" lon="6.03919">
        <ele>222.09</ele>
        <time>2017-09-20T10:04:47Z</time>
      </trkpt>
      <trkpt lat="47.70985" lon="6.0392">
        <ele>221.67</ele>
        <time>2017-09-20T10:04:50Z</time>
      </trkpt>
      <trkpt lat="47.70966" lon="6.03922">
        <ele>221.32</ele>
        <time>2017-09-20T10:04:53Z</time>
      </trkpt>
      <trkpt lat="47.70947" lon="6.0392">
        <ele>221.1</ele>
        <time>2017-09-20T10:04:56Z</time>
      </trkpt>
      <trkpt lat="47.70923" lon="6.03922">
        <ele>220.75</ele>
        <time>2017-09-20T10:05:00Z</time>
      </trkpt>
      <trkpt lat="47.70902" lon="6.03922">
        <ele>220.06</ele>
        <time>2017-09-20T10:05:04Z</time>
      </trkpt>
      <trkpt lat="47.70882" lon="6.03923">
        <ele>219.02</ele>
        <time>2017-09-20T10:05:08Z</time>
      </trkpt>
      <trkpt lat="47.70862" lon="6.03925">
        <ele>217.85</ele>
        <time>2017-09-20T10:05:12Z</time>
      </trkpt>
      <trkpt lat="47.70841" lon="6.03927">
        <ele>216.55</ele>
        <time>2017-09-20T10:05:16Z</time>
      </trkpt>
      <trkpt lat="47.70818" lon="6.03936">
        <ele>215.58</ele>
        <time>2017-09-20T10:05:20Z</time>
      </trkpt>
      <trkpt lat="47.70799" lon="6.03945">
        <ele>214.88</ele>
        <time>2017-09-20T10:05:24Z</time>
      </trkpt>
      <trkpt lat="47.70781" lon="6.0396">
        <ele>214.26</ele>
        <time>2017-09-20T10:05:28Z</time>
      </trkpt>
      <trkpt lat="47.70762" lon="6.03978">
        <ele>213.83</ele>
        <time>2017-09-20T10:05:32Z</time>
      </trkpt>
      <trkpt lat="47.70744" lon="6.03995">
        <ele>213.63</ele>
        <time>2017-09-20T10:05:36Z</time>
      </trkpt>
      <trkpt lat="47.70725" lon="6.04011">
        <ele>213.29</ele>
        <time>2017-09-20T10:05:40Z</time>
      </trkpt>
      <trkpt lat="47.70707" lon="6.04028">
        <ele>212.86</ele>
        <time>2017-09-20T10:05:44Z</time>
      </trkpt>
      <trkpt lat="47.70689" lon="6.04044">
        <ele>212.58</ele>
        <time>2017-09-20T10:05:48Z</time>
      </trkpt>
      <trkpt lat="47.70671" lon="6.04067">
        <ele>212.5</ele>
        <time>2017-09-20T10:05:52Z</time>
      </trkpt>
      <trkpt lat="47.70658" lon="6.04085">
        <ele>212.63</ele>
        <time>2017-09-20T10:05:55Z</time>
      </trkpt>
      <trkpt lat="47.70641" lon="6.04108">
        <ele>213.11</ele>
        <time>2017-09-20T10:05:59Z</time>
      </trkpt>
      <trkpt lat="47.70624" lon="6.04133">
        <ele>213.73</ele>
        <time>2017-09-20T10:06:03Z</time>
      </trkpt>
      <trkpt lat="47.70608" lon="6.04157">
        <ele>214.45</ele>
        <time>2017-09-20T10:06:07Z</time>
      </trkpt>
      <trkpt lat="47.70595" lon="6.04176">
        <ele>214.8</ele>
        <time>2017-09-20T10:06:10Z</time>
      </trkpt>
      <trkpt lat="47.70579" lon="6.04197">
        <ele>215.52</ele>
        <time>2017-09-20T10:06:14Z</time>
      </trkpt>
      <trkpt lat="47.70563" lon="6.04219">
        <ele>216.05</ele>
        <time>2017-09-20T10:06:18Z</time>
      </trkpt>
      <trkpt lat="47.70548" lon="6.04243">
        <ele>216.5</ele>
        <time>2017-09-20T10:06:22Z</time>
      </trkpt>
      <trkpt lat="47.70536" lon="6.04262">
        <ele>216.89</ele>
        <time>2017-09-20T10:06:25Z</time>
      </trkpt>
      <trkpt lat="47.7052" lon="6.04288">
        <ele>217.55</ele>
        <time>2017-09-20T10:06:29Z</time>
      </trkpt>
      <trkpt lat="47.70503" lon="6.04311">
        <ele>218.33</ele>
        <time>2017-09-20T10:06:33Z</time>
      </trkpt>
      <trkpt lat="47.70486" lon="6.04327">
        <ele>218.63</ele>
        <time>2017-09-20T10:06:37Z</time>
      </trkpt>
      <trkpt lat="47.70468" lon="6.04344">
        <ele>219.18</ele>
        <time>2017-09-20T10:06:42Z</time>
      </trkpt>
      <trkpt lat="47.7045" lon="6.04356">
        <ele>220.85</ele>
        <time>2017-09-20T10:06:46Z</time>
      </trkpt>
      <trkpt lat="47.7043" lon="6.04367">
        <ele>221.28</ele>
        <time>2017-09-20T10:06:51Z</time>
      </trkpt>
      <trkpt lat="47.70412" lon="6.04374">
        <ele>221.88</ele>
        <time>2017-09-20T10:06:55Z</time>
      </trkpt>
      <trkpt lat="47.70391" lon="6.04383">
        <ele>222.46</ele>
        <time>2017-09-20T10:07:00Z</time>
      </trkpt>
      <trkpt lat="47.70372" lon="6.04395">
        <ele>222.83</ele>
        <time>2017-09-20T10:07:05Z</time>
      </trkpt>
      <trkpt lat="47.70351" lon="6.04403">
        <ele>223.4</ele>
        <time>2017-09-20T10:07:10Z</time>
      </trkpt>
      <trkpt lat="47.7033" lon="6.04415">
        <ele>223.77</ele>
        <time>2017-09-20T10:07:15Z</time>
      </trkpt>
      <trkpt lat="47.70312" lon="6.04428">
        <ele>224.49</ele>
        <time>2017-09-20T10:07:19Z</time>
      </trkpt>
      <trkpt lat="47.70291" lon="6.04441">
        <ele>225</ele>
        <time>2017-09-20T10:07:23Z</time>
      </trkpt>
      <trkpt lat="47.70269" lon="6.04449">
        <ele>224.96</ele>
        <time>2017-09-20T10:07:26Z</time>
      </trkpt>
      <trkpt lat="47.70249" lon="6.04458">
        <ele>224.52</ele>
        <time>2017-09-20T10:07:30Z</time>
      </trkpt>
      <trkpt lat="47.70228" lon="6.04467">
        <ele>224.14</ele>
        <time>2017-09-20T10:07:35Z</time>
      </trkpt>
      <trkpt lat="47.70207" lon="6.04477">
        <ele>223.88</ele>
        <time>2017-09-20T10:07:39Z</time>
      </trkpt>
      <trkpt lat="47.70186" lon="6.04486">
        <ele>223.83</ele>
        <time>2017-09-20T10:07:44Z</time>
      </trkpt>
      <trkpt lat="47.70166" lon="6.04493">
        <ele>223.74</ele>
        <time>2017-09-20T10:07:48Z</time>
      </trkpt>
      <trkpt lat="47.70147" lon="6.0449">
        <ele>223.76</ele>
        <time>2017-09-20T10:07:53Z</time>
      </trkpt>
      <trkpt lat="47.70128" lon="6.04478">
        <ele>223.86</ele>
        <time>2017-09-20T10:07:59Z</time>
      </trkpt>
      <trkpt lat="47.70109" lon="6.04468">
        <ele>224.05</ele>
        <time>2017-09-20T10:08:07Z</time>
      </trkpt>
      <trkpt lat="47.7009" lon="6.04462">
        <ele>224.29</ele>
        <time>2017-09-20T10:08:16Z</time>
      </trkpt>
      <trkpt lat="47.70069" lon="6.04462">
        <ele>224.54</ele>
        <time>2017-09-20T10:08:26Z</time>
      </trkpt>
      <trkpt lat="47.70051" lon="6.0447">
        <ele>224.68</ele>
        <time>2017-09-20T10:08:32Z</time>
      </trkpt>
      <trkpt lat="47.70031" lon="6.0447">
        <ele>224.98</ele>
        <time>2017-09-20T10:08:36Z</time>
      </trkpt>
      <trkpt lat="47.70012" lon="6.04465">
        <ele>225.19</ele>
        <time>2017-09-20T10:08:39Z</time>
      </trkpt>
      <trkpt lat="47.69992" lon="6.04458">
        <ele>225.23</ele>
        <time>2017-09-20T10:08:42Z</time>
      </trkpt>
      <trkpt lat="47.69973" lon="6.04453">
        <ele>225.16</ele>
        <time>2017-09-20T10:08:45Z</time>
      </trkpt>
      <trkpt lat="47.69955" lon="6.04447">
        <ele>225.02</ele>
        <time>2017-09-20T10:08:48Z</time>
      </trkpt>
      <trkpt lat="47.69937" lon="6.04443">
        <ele>224.89</ele>
        <time>2017-09-20T10:08:51Z</time>
      </trkpt>
      <trkpt lat="47.69915" lon="6.04438">
        <ele>224.72</ele>
        <time>2017-09-20T10:08:55Z</time>
      </trkpt>
      <trkpt lat="47.69894" lon="6.04437">
        <ele>224.56</ele>
        <time>2017-09-20T10:08:59Z</time>
      </trkpt>
      <trkpt lat="47.69871" lon="6.04436">
        <ele>224.43</ele>
        <time>2017-09-20T10:09:03Z</time>
      </trkpt>
      <trkpt lat="47.69848" lon="6.04433">
        <ele>224.39</ele>
        <time>2017-09-20T10:09:07Z</time>
      </trkpt>
      <trkpt lat="47.69825" lon="6.04432">
        <ele>224.31</ele>
        <time>2017-09-20T10:09:11Z</time>
      </trkpt>
      <trkpt lat="47.69806" lon="6.0443">
        <ele>224.33</ele>
        <time>2017-09-20T10:09:14Z</time>
      </trkpt>
      <trkpt lat="47.69785" lon="6.04428">
        <ele>224.38</ele>
        <time>2017-09-20T10:09:18Z</time>
      </trkpt>
      <trkpt lat="47.69762" lon="6.04425">
        <ele>224.39</ele>
        <time>2017-09-20T10:09:22Z</time>
      </trkpt>
      <trkpt lat="47.69741" lon="6.04423">
        <ele>224.39</ele>
        <time>2017-09-20T10:09:25Z</time>
      </trkpt>
      <trkpt lat="47.69722" lon="6.04424">
        <ele>224.16</ele>
        <time>2017-09-20T10:09:28Z</time>
      </trkpt>
      <trkpt lat="47.69699" lon="6.04423">
        <ele>223.77</ele>
        <time>2017-09-20T10:09:32Z</time>
      </trkpt>
      <trkpt lat="47.69679" lon="6.04425">
        <ele>223.25</ele>
        <time>2017-09-20T10:09:36Z</time>
      </trkpt>
      <trkpt lat="47.69658" lon="6.04427">
        <ele>222.68</ele>
        <time>2017-09-20T10:09:40Z</time>
      </trkpt>
      <trkpt lat="47.69637" lon="6.04429">
        <ele>222.03</ele>
        <time>2017-09-20T10:09:44Z</time>
      </trkpt>
      <trkpt lat="47.69617" lon="6.0443">
        <ele>221.4</ele>
        <time>2017-09-20T10:09:48Z</time>
      </trkpt>
      <trkpt lat="47.69596" lon="6.0443">
        <ele>220.78</ele>
        <time>2017-09-20T10:09:52Z</time>
      </trkpt>
      <trkpt lat="47.69575" lon="6.04431">
        <ele>220.23</ele>
        <time>2017-09-20T10:09:56Z</time>
      </trkpt>
      <trkpt lat="47.69555" lon="6.04432">
        <ele>219.77</ele>
        <time>2017-09-20T10:10:00Z</time>
      </trkpt>
      <trkpt lat="47.69537" lon="6.04432">
        <ele>219.41</ele>
        <time>2017-09-20T10:10:04Z</time>
      </trkpt>
      <trkpt lat="47.69517" lon="6.04429">
        <ele>219.2</ele>
        <time>2017-09-20T10:10:08Z</time>
      </trkpt>
      <trkpt lat="47.69499" lon="6.04429">
        <ele>219.09</ele>
        <time>2017-09-20T10:10:12Z</time>
      </trkpt>
      <trkpt lat="47.69479" lon="6.04425">
        <ele>219.02</ele>
        <time>2017-09-20T10:10:16Z</time>
      </trkpt>
      <trkpt lat="47.69458" lon="6.04423">
        <ele>218.97</ele>
        <time>2017-09-20T10:10:20Z</time>
      </trkpt>
      <trkpt lat="47.69439" lon="6.04421">
        <ele>218.88</ele>
        <time>2017-09-20T10:10:24Z</time>
      </trkpt>
      <trkpt lat="47.69419" lon="6.04418">
        <ele>218.85</ele>
        <time>2017-09-20T10:10:28Z</time>
      </trkpt>
      <trkpt lat="47.694" lon="6.04417">
        <ele>218.83</ele>
        <time>2017-09-20T10:10:32Z</time>
      </trkpt>
      <trkpt lat="47.69379" lon="6.04411">
        <ele>218.85</ele>
        <time>2017-09-20T10:10:36Z</time>
      </trkpt>
      <trkpt lat="47.69359" lon="6.04407">
        <ele>218.92</ele>
        <time>2017-09-20T10:10:40Z</time>
      </trkpt>
      <trkpt lat="47.6934" lon="6.04405">
        <ele>218.98</ele>
        <time>2017-09-20T10:10:44Z</time>
      </trkpt>
      <trkpt lat="47.69322" lon="6.04404">
        <ele>218.99</ele>
        <time>2017-09-20T10:10:48Z</time>
      </trkpt>
      <trkpt lat="47.69304" lon="6.044">
        <ele>218.98</ele>
        <time>2017-09-20T10:10:52Z</time>
      </trkpt>
      <trkpt lat="47.69283" lon="6.04395">
        <ele>219.05</ele>
        <time>2017-09-20T10:10:56Z</time>
      </trkpt>
      <trkpt lat="47.69265" lon="6.04392">
        <ele>219.1</ele>
        <time>2017-09-20T10:11:00Z</time>
      </trkpt>
      <trkpt lat="47.69245" lon="6.04385">
        <ele>219.08</ele>
        <time>2017-09-20T10:11:04Z</time>
      </trkpt>
      <trkpt lat="47.69225" lon="6.04377">
        <ele>219.04</ele>
        <time>2017-09-20T10:11:08Z</time>
      </trkpt>
      <trkpt lat="47.69207" lon="6.04369">
        <ele>219.03</ele>
        <time>2017-09-20T10:11:12Z</time>
      </trkpt>
      <trkpt lat="47.69187" lon="6.04362">
        <ele>219.03</ele>
        <time>2017-09-20T10:11:16Z</time>
      </trkpt>
      <trkpt lat="47.69166" lon="6.04354">
        <ele>219.02</ele>
        <time>2017-09-20T10:11:20Z</time>
      </trkpt>
      <trkpt lat="47.69145" lon="6.04347">
        <ele>218.97</ele>
        <time>2017-09-20T10:11:24Z</time>
      </trkpt>
      <trkpt lat="47.69126" lon="6.04341">
        <ele>218.97</ele>
        <time>2017-09-20T10:11:28Z</time>
      </trkpt>
      <trkpt lat="47.69108" lon="6.0434">
        <ele>218.98</ele>
        <time>2017-09-20T10:11:33Z</time>
      </trkpt>
      <trkpt lat="47.69089" lon="6.04338">
        <ele>218.96</ele>
        <time>2017-09-20T10:11:37Z</time>
      </trkpt>
      <trkpt lat="47.69068" lon="6.04331">
        <ele>218.9</ele>
        <time>2017-09-20T10:11:41Z</time>
      </trkpt>
      <trkpt lat="47.69047" lon="6.04326">
        <ele>218.82</ele>
        <time>2017-09-20T10:11:45Z</time>
      </trkpt>
      <trkpt lat="47.69028" lon="6.04321">
        <ele>218.76</ele>
        <time>2017-09-20T10:11:49Z</time>
      </trkpt>
      <trkpt lat="47.6901" lon="6.04315">
        <ele>218.71</ele>
        <time>2017-09-20T10:11:53Z</time>
      </trkpt>
      <trkpt lat="47.68988" lon="6.04311">
        <ele>218.67</ele>
        <time>2017-09-20T10:11:58Z</time>
      </trkpt>
      <trkpt lat="47.68967" lon="6.04314">
        <ele>218.68</ele>
        <time>2017-09-20T10:12:03Z</time>
      </trkpt>
      <trkpt lat="47.68947" lon="6.04314">
        <ele>218.75</ele>
        <time>2017-09-20T10:12:07Z</time>
      </trkpt>
      <trkpt lat="47.68929" lon="6.04323">
        <ele>218.77</ele>
        <time>2017-09-20T10:12:13Z</time>
      </trkpt>
      <trkpt lat="47.68907" lon="6.04328">
        <ele>218.71</ele>
        <time>2017-09-20T10:12:19Z</time>
      </trkpt>
      <trkpt lat="47.68888" lon="6.04334">
        <ele>218.62</ele>
        <time>2017-09-20T10:12:25Z</time>
      </trkpt>
      <trkpt lat="47.68869" lon="6.04339">
        <ele>218.85</ele>
        <time>2017-09-20T10:12:48Z</time>
      </trkpt>
      <trkpt lat="47.6885" lon="6.04334">
        <ele>219.13</ele>
        <time>2017-09-20T10:13:04Z</time>
      </trkpt>
      <trkpt lat="47.68832" lon="6.04328">
        <ele>219.11</ele>
        <time>2017-09-20T10:13:07Z</time>
      </trkpt>
      <trkpt lat="47.68812" lon="6.0432">
        <ele>219.03</ele>
        <time>2017-09-20T10:13:10Z</time>
      </trkpt>
      <trkpt lat="47.68792" lon="6.04304">
        <ele>218.97</ele>
        <time>2017-09-20T10:13:14Z</time>
      </trkpt>
      <trkpt lat="47.68774" lon="6.04291">
        <ele>218.91</ele>
        <time>2017-09-20T10:13:17Z</time>
      </trkpt>
      <trkpt lat="47.68755" lon="6.04277">
        <ele>218.88</ele>
        <time>2017-09-20T10:13:21Z</time>
      </trkpt>
      <trkpt lat="47.68733" lon="6.04269">
        <ele>218.84</ele>
        <time>2017-09-20T10:13:25Z</time>
      </trkpt>
      <trkpt lat="47.68713" lon="6.04259">
        <ele>218.78</ele>
        <time>2017-09-20T10:13:29Z</time>
      </trkpt>
      <trkpt lat="47.68694" lon="6.04249">
        <ele>218.72</ele>
        <time>2017-09-20T10:13:34Z</time>
      </trkpt>
      <trkpt lat="47.68674" lon="6.04244">
        <ele>218.43</ele>
        <time>2017-09-20T10:13:40Z</time>
      </trkpt>
      <trkpt lat="47.68651" lon="6.04234">
        <ele>217.78</ele>
        <time>2017-09-20T10:13:44Z</time>
      </trkpt>
      <trkpt lat="47.68628" lon="6.04227">
        <ele>217.45</ele>
        <time>2017-09-20T10:13:48Z</time>
      </trkpt>
      <trkpt lat="47.68608" lon="6.04229">
        <ele>217.01</ele>
        <time>2017-09-20T10:13:52Z</time>
      </trkpt>
      <trkpt lat="47.68588" lon="6.04232">
        <ele>216.8</ele>
        <time>2017-09-20T10:13:57Z</time>
      </trkpt>
      <trkpt lat="47.68567" lon="6.04234">
        <ele>216.74</ele>
        <time>2017-09-20T10:14:02Z</time>
      </trkpt>
      <trkpt lat="47.68547" lon="6.04237">
        <ele>216.7</ele>
        <time>2017-09-20T10:14:07Z</time>
      </trkpt>
      <trkpt lat="47.68525" lon="6.04235">
        <ele>216.64</ele>
        <time>2017-09-20T10:14:12Z</time>
      </trkpt>
      <trkpt lat="47.68505" lon="6.04239">
        <ele>216.59</ele>
        <time>2017-09-20T10:14:17Z</time>
      </trkpt>
      <trkpt lat="47.68484" lon="6.04241">
        <ele>216.49</ele>
        <time>2017-09-20T10:14:22Z</time>
      </trkpt>
      <trkpt lat="47.68462" lon="6.04238">
        <ele>216.53</ele>
        <time>2017-09-20T10:14:27Z</time>
      </trkpt>
      <trkpt lat="47.68442" lon="6.04238">
        <ele>216.5</ele>
        <time>2017-09-20T10:14:31Z</time>
      </trkpt>
      <trkpt lat="47.68423" lon="6.0424">
        <ele>216.41</ele>
        <time>2017-09-20T10:14:36Z</time>
      </trkpt>
      <trkpt lat="47.68404" lon="6.04245">
        <ele>216.34</ele>
        <time>2017-09-20T10:14:41Z</time>
      </trkpt>
      <trkpt lat="47.68394" lon="6.04269">
        <ele>216.14</ele>
        <time>2017-09-20T10:14:47Z</time>
      </trkpt>
      <trkpt lat="47.68394" lon="6.04301">
        <ele>216.07</ele>
        <time>2017-09-20T10:14:53Z</time>
      </trkpt>
      <trkpt lat="47.68394" lon="6.04331">
        <ele>215.92</ele>
        <time>2017-09-20T10:14:59Z</time>
      </trkpt>
      <trkpt lat="47.68395" lon="6.0436">
        <ele>215.81</ele>
        <time>2017-09-20T10:15:05Z</time>
      </trkpt>
      <trkpt lat="47.68397" lon="6.04388">
        <ele>215.71</ele>
        <time>2017-09-20T10:15:12Z</time>
      </trkpt>
      <trkpt lat="47.68398" lon="6.04417">
        <ele>215.49</ele>
        <time>2017-09-20T10:15:18Z</time>
      </trkpt>
      <trkpt lat="47.68413" lon="6.04433">
        <ele>215.51</ele>
        <time>2017-09-20T10:15:34Z</time>
      </trkpt>
      <trkpt lat="47.68433" lon="6.04434">
        <ele>215.56</ele>
        <time>2017-09-20T10:15:40Z</time>
      </trkpt>
      <trkpt lat="47.68452" lon="6.04435">
        <ele>215.6</ele>
        <time>2017-09-20T10:15:47Z</time>
      </trkpt>
      <trkpt lat="47.6847" lon="6.04436">
        <ele>215.67</ele>
        <time>2017-09-20T10:15:53Z</time>
      </trkpt>
      <trkpt lat="47.68491" lon="6.04438">
        <ele>215.8</ele>
        <time>2017-09-20T10:16:00Z</time>
      </trkpt>
      <trkpt lat="47.68509" lon="6.04447">
        <ele>215.95</ele>
        <time>2017-09-20T10:16:06Z</time>
      </trkpt>
      <trkpt lat="47.68526" lon="6.04459">
        <ele>216.12</ele>
        <time>2017-09-20T10:16:12Z</time>
      </trkpt>
      <trkpt lat="47.68544" lon="6.04471">
        <ele>216.29</ele>
        <time>2017-09-20T10:16:18Z</time>
      </trkpt>
      <trkpt lat="47.68563" lon="6.04484">
        <ele>216.5</ele>
        <time>2017-09-20T10:16:24Z</time>
      </trkpt>
      <trkpt lat="47.68582" lon="6.04498">
        <ele>216.73</ele>
        <time>2017-09-20T10:16:30Z</time>
      </trkpt>
      <trkpt lat="47.68598" lon="6.04509">
        <ele>216.98</ele>
        <time>2017-09-20T10:16:36Z</time>
      </trkpt>
      <trkpt lat="47.68615" lon="6.04522">
        <ele>217.26</ele>
        <time>2017-09-20T10:16:42Z</time>
      </trkpt>
      <trkpt lat="47.6862" lon="6.04548">
        <ele>218.02</ele>
        <time>2017-09-20T10:16:59Z</time>
      </trkpt>
    </trkseg>
  </trk>
</gpx>